<?xml version="1.0" encoding="UTF-8" standalone="no" ?>
<gpx xmlns="http://www.topografix.com/GPX/1/1" xmlns:xsi="http://www.w3.org/2001/XMLSchema-instance" xsi:schemaLocation="http://www.topografix.com/GPX/1/1 http://www.topografix.com/GPX/1/1/gpx.xsd" version="1.1" creator="VisuGPX - https://www.visugpx.com">
  <metadata>
    <name>Caubios-Sauvagnon</name>
    <desc><![CDATA[Si vous aimez voir le pic du Midi d\'Ossau dans toute sa splendeur, et dans le cadre superbe du bois de Sauvagnon, n\'hésitez pas, faites cette boucle!]]></desc>
  </metadata>
  <trk>
    <name><![CDATA[Tracé actuel: 02 OCT 2012 14:19]]></name>
    <trkseg>
      <trkpt lat="43.41199" lon="-0.406">
        <ele>184.23</ele>
        <time>2012-10-02T12:19:56Z</time>
      </trkpt>
      <trkpt lat="43.41215" lon="-0.40593">
        <ele>190.96</ele>
        <time>2012-10-02T12:20:35Z</time>
      </trkpt>
      <trkpt lat="43.4123" lon="-0.40583">
        <ele>190.96</ele>
        <time>2012-10-02T12:21:17Z</time>
      </trkpt>
      <trkpt lat="43.41242" lon="-0.40569">
        <ele>190.96</ele>
        <time>2012-10-02T12:21:26Z</time>
      </trkpt>
      <trkpt lat="43.41248" lon="-0.40555">
        <ele>190.96</ele>
        <time>2012-10-02T12:21:35Z</time>
      </trkpt>
      <trkpt lat="43.4125" lon="-0.40539">
        <ele>190.96</ele>
        <time>2012-10-02T12:21:43Z</time>
      </trkpt>
      <trkpt lat="43.41253" lon="-0.40526">
        <ele>190</ele>
        <time>2012-10-02T12:21:51Z</time>
      </trkpt>
      <trkpt lat="43.41255" lon="-0.40514">
        <ele>190.48</ele>
        <time>2012-10-02T12:21:59Z</time>
      </trkpt>
      <trkpt lat="43.41259" lon="-0.40501">
        <ele>190.96</ele>
        <time>2012-10-02T12:22:07Z</time>
      </trkpt>
      <trkpt lat="43.41263" lon="-0.40488">
        <ele>190.48</ele>
        <time>2012-10-02T12:22:15Z</time>
      </trkpt>
      <trkpt lat="43.41267" lon="-0.40476">
        <ele>190.48</ele>
        <time>2012-10-02T12:22:23Z</time>
      </trkpt>
      <trkpt lat="43.41271" lon="-0.40464">
        <ele>190.48</ele>
        <time>2012-10-02T12:22:31Z</time>
      </trkpt>
      <trkpt lat="43.41274" lon="-0.40452">
        <ele>190.48</ele>
        <time>2012-10-02T12:22:39Z</time>
      </trkpt>
      <trkpt lat="43.41277" lon="-0.40441">
        <ele>190.48</ele>
        <time>2012-10-02T12:22:47Z</time>
      </trkpt>
      <trkpt lat="43.41281" lon="-0.40429">
        <ele>190</ele>
        <time>2012-10-02T12:22:55Z</time>
      </trkpt>
      <trkpt lat="43.41284" lon="-0.40418">
        <ele>190</ele>
        <time>2012-10-02T12:23:03Z</time>
      </trkpt>
      <trkpt lat="43.41287" lon="-0.40405">
        <ele>190</ele>
        <time>2012-10-02T12:23:11Z</time>
      </trkpt>
      <trkpt lat="43.41289" lon="-0.40392">
        <ele>190.48</ele>
        <time>2012-10-02T12:23:19Z</time>
      </trkpt>
      <trkpt lat="43.41289" lon="-0.40379">
        <ele>190</ele>
        <time>2012-10-02T12:23:27Z</time>
      </trkpt>
      <trkpt lat="43.41288" lon="-0.40365">
        <ele>190</ele>
        <time>2012-10-02T12:23:35Z</time>
      </trkpt>
      <trkpt lat="43.41288" lon="-0.40352">
        <ele>190.48</ele>
        <time>2012-10-02T12:23:43Z</time>
      </trkpt>
      <trkpt lat="43.41288" lon="-0.40338">
        <ele>190.48</ele>
        <time>2012-10-02T12:23:51Z</time>
      </trkpt>
      <trkpt lat="43.41287" lon="-0.40324">
        <ele>190.48</ele>
        <time>2012-10-02T12:23:59Z</time>
      </trkpt>
      <trkpt lat="43.41285" lon="-0.40311">
        <ele>190.48</ele>
        <time>2012-10-02T12:24:07Z</time>
      </trkpt>
      <trkpt lat="43.41286" lon="-0.40297">
        <ele>191.44</ele>
        <time>2012-10-02T12:24:15Z</time>
      </trkpt>
      <trkpt lat="43.41289" lon="-0.40288">
        <ele>191.92</ele>
        <time>2012-10-02T12:24:25Z</time>
      </trkpt>
      <trkpt lat="43.41299" lon="-0.40286">
        <ele>191.92</ele>
        <time>2012-10-02T12:24:33Z</time>
      </trkpt>
      <trkpt lat="43.4131" lon="-0.40283">
        <ele>191.92</ele>
        <time>2012-10-02T12:24:41Z</time>
      </trkpt>
      <trkpt lat="43.4132" lon="-0.40277">
        <ele>192.4</ele>
        <time>2012-10-02T12:24:50Z</time>
      </trkpt>
      <trkpt lat="43.4133" lon="-0.40266">
        <ele>192.88</ele>
        <time>2012-10-02T12:24:58Z</time>
      </trkpt>
      <trkpt lat="43.41337" lon="-0.40258">
        <ele>193.36</ele>
        <time>2012-10-02T12:25:06Z</time>
      </trkpt>
      <trkpt lat="43.41347" lon="-0.40251">
        <ele>193.84</ele>
        <time>2012-10-02T12:25:15Z</time>
      </trkpt>
      <trkpt lat="43.41356" lon="-0.40245">
        <ele>194.8</ele>
        <time>2012-10-02T12:25:23Z</time>
      </trkpt>
      <trkpt lat="43.41364" lon="-0.40238">
        <ele>195.77</ele>
        <time>2012-10-02T12:25:32Z</time>
      </trkpt>
      <trkpt lat="43.41373" lon="-0.40235">
        <ele>195.28</ele>
        <time>2012-10-02T12:26:01Z</time>
      </trkpt>
      <trkpt lat="43.41385" lon="-0.4024">
        <ele>195.77</ele>
        <time>2012-10-02T12:26:14Z</time>
      </trkpt>
      <trkpt lat="43.41398" lon="-0.40248">
        <ele>194.8</ele>
        <time>2012-10-02T12:26:27Z</time>
      </trkpt>
      <trkpt lat="43.41407" lon="-0.40255">
        <ele>194.32</ele>
        <time>2012-10-02T12:26:37Z</time>
      </trkpt>
      <trkpt lat="43.41415" lon="-0.40264">
        <ele>193.84</ele>
        <time>2012-10-02T12:26:47Z</time>
      </trkpt>
      <trkpt lat="43.41423" lon="-0.4027">
        <ele>193.36</ele>
        <time>2012-10-02T12:26:55Z</time>
      </trkpt>
      <trkpt lat="43.41431" lon="-0.40278">
        <ele>192.88</ele>
        <time>2012-10-02T12:27:04Z</time>
      </trkpt>
      <trkpt lat="43.41438" lon="-0.40289">
        <ele>191.92</ele>
        <time>2012-10-02T12:27:13Z</time>
      </trkpt>
      <trkpt lat="43.41442" lon="-0.403">
        <ele>191.92</ele>
        <time>2012-10-02T12:27:21Z</time>
      </trkpt>
      <trkpt lat="43.4145" lon="-0.40309">
        <ele>191.92</ele>
        <time>2012-10-02T12:27:29Z</time>
      </trkpt>
      <trkpt lat="43.4146" lon="-0.40308">
        <ele>191.92</ele>
        <time>2012-10-02T12:27:37Z</time>
      </trkpt>
      <trkpt lat="43.41469" lon="-0.40302">
        <ele>191.92</ele>
        <time>2012-10-02T12:27:45Z</time>
      </trkpt>
      <trkpt lat="43.41476" lon="-0.40296">
        <ele>191.92</ele>
        <time>2012-10-02T12:27:53Z</time>
      </trkpt>
      <trkpt lat="43.41483" lon="-0.40289">
        <ele>192.4</ele>
        <time>2012-10-02T12:28:01Z</time>
      </trkpt>
      <trkpt lat="43.41492" lon="-0.40283">
        <ele>192.4</ele>
        <time>2012-10-02T12:28:09Z</time>
      </trkpt>
      <trkpt lat="43.415" lon="-0.40276">
        <ele>192.4</ele>
        <time>2012-10-02T12:28:17Z</time>
      </trkpt>
      <trkpt lat="43.41508" lon="-0.4027">
        <ele>192.4</ele>
        <time>2012-10-02T12:28:25Z</time>
      </trkpt>
      <trkpt lat="43.41517" lon="-0.40262">
        <ele>191.92</ele>
        <time>2012-10-02T12:28:34Z</time>
      </trkpt>
      <trkpt lat="43.41525" lon="-0.40254">
        <ele>191.92</ele>
        <time>2012-10-02T12:28:43Z</time>
      </trkpt>
      <trkpt lat="43.41533" lon="-0.40248">
        <ele>192.4</ele>
        <time>2012-10-02T12:28:51Z</time>
      </trkpt>
      <trkpt lat="43.41541" lon="-0.40241">
        <ele>192.88</ele>
        <time>2012-10-02T12:28:59Z</time>
      </trkpt>
      <trkpt lat="43.41549" lon="-0.40232">
        <ele>192.88</ele>
        <time>2012-10-02T12:29:08Z</time>
      </trkpt>
      <trkpt lat="43.41557" lon="-0.40225">
        <ele>193.36</ele>
        <time>2012-10-02T12:29:16Z</time>
      </trkpt>
      <trkpt lat="43.41566" lon="-0.40218">
        <ele>193.36</ele>
        <time>2012-10-02T12:29:25Z</time>
      </trkpt>
      <trkpt lat="43.41576" lon="-0.40211">
        <ele>193.84</ele>
        <time>2012-10-02T12:29:34Z</time>
      </trkpt>
      <trkpt lat="43.41585" lon="-0.40208">
        <ele>194.32</ele>
        <time>2012-10-02T12:29:43Z</time>
      </trkpt>
      <trkpt lat="43.41595" lon="-0.40206">
        <ele>194.32</ele>
        <time>2012-10-02T12:29:51Z</time>
      </trkpt>
      <trkpt lat="43.41605" lon="-0.40206">
        <ele>193.84</ele>
        <time>2012-10-02T12:30:00Z</time>
      </trkpt>
      <trkpt lat="43.41613" lon="-0.40205">
        <ele>193.36</ele>
        <time>2012-10-02T12:30:08Z</time>
      </trkpt>
      <trkpt lat="43.41624" lon="-0.40202">
        <ele>193.84</ele>
        <time>2012-10-02T12:30:16Z</time>
      </trkpt>
      <trkpt lat="43.41632" lon="-0.40197">
        <ele>193.84</ele>
        <time>2012-10-02T12:30:24Z</time>
      </trkpt>
      <trkpt lat="43.4164" lon="-0.4019">
        <ele>194.32</ele>
        <time>2012-10-02T12:30:32Z</time>
      </trkpt>
      <trkpt lat="43.41648" lon="-0.40182">
        <ele>193.84</ele>
        <time>2012-10-02T12:30:40Z</time>
      </trkpt>
      <trkpt lat="43.41656" lon="-0.40175">
        <ele>194.8</ele>
        <time>2012-10-02T12:30:48Z</time>
      </trkpt>
      <trkpt lat="43.41663" lon="-0.40167">
        <ele>195.28</ele>
        <time>2012-10-02T12:30:56Z</time>
      </trkpt>
      <trkpt lat="43.41671" lon="-0.40159">
        <ele>195.28</ele>
        <time>2012-10-02T12:31:05Z</time>
      </trkpt>
      <trkpt lat="43.41678" lon="-0.40151">
        <ele>195.28</ele>
        <time>2012-10-02T12:31:14Z</time>
      </trkpt>
      <trkpt lat="43.41686" lon="-0.40144">
        <ele>196.25</ele>
        <time>2012-10-02T12:31:22Z</time>
      </trkpt>
      <trkpt lat="43.41695" lon="-0.40137">
        <ele>196.25</ele>
        <time>2012-10-02T12:31:30Z</time>
      </trkpt>
      <trkpt lat="43.41702" lon="-0.4013">
        <ele>196.25</ele>
        <time>2012-10-02T12:31:38Z</time>
      </trkpt>
      <trkpt lat="43.41711" lon="-0.40124">
        <ele>196.73</ele>
        <time>2012-10-02T12:31:46Z</time>
      </trkpt>
      <trkpt lat="43.41719" lon="-0.40117">
        <ele>196.25</ele>
        <time>2012-10-02T12:31:54Z</time>
      </trkpt>
      <trkpt lat="43.41727" lon="-0.40111">
        <ele>197.21</ele>
        <time>2012-10-02T12:32:02Z</time>
      </trkpt>
      <trkpt lat="43.41735" lon="-0.40104">
        <ele>197.21</ele>
        <time>2012-10-02T12:32:10Z</time>
      </trkpt>
      <trkpt lat="43.41742" lon="-0.40098">
        <ele>197.21</ele>
        <time>2012-10-02T12:32:18Z</time>
      </trkpt>
      <trkpt lat="43.41749" lon="-0.40091">
        <ele>197.69</ele>
        <time>2012-10-02T12:32:26Z</time>
      </trkpt>
      <trkpt lat="43.41757" lon="-0.40084">
        <ele>197.69</ele>
        <time>2012-10-02T12:32:34Z</time>
      </trkpt>
      <trkpt lat="43.41766" lon="-0.40076">
        <ele>197.69</ele>
        <time>2012-10-02T12:32:43Z</time>
      </trkpt>
      <trkpt lat="43.41774" lon="-0.4007">
        <ele>197.69</ele>
        <time>2012-10-02T12:32:51Z</time>
      </trkpt>
      <trkpt lat="43.41782" lon="-0.40063">
        <ele>198.17</ele>
        <time>2012-10-02T12:32:59Z</time>
      </trkpt>
      <trkpt lat="43.4179" lon="-0.40056">
        <ele>198.17</ele>
        <time>2012-10-02T12:33:08Z</time>
      </trkpt>
      <trkpt lat="43.41798" lon="-0.40048">
        <ele>198.65</ele>
        <time>2012-10-02T12:33:16Z</time>
      </trkpt>
      <trkpt lat="43.41804" lon="-0.4004">
        <ele>198.65</ele>
        <time>2012-10-02T12:33:24Z</time>
      </trkpt>
      <trkpt lat="43.41812" lon="-0.40032">
        <ele>199.13</ele>
        <time>2012-10-02T12:33:32Z</time>
      </trkpt>
      <trkpt lat="43.4182" lon="-0.40026">
        <ele>199.61</ele>
        <time>2012-10-02T12:33:40Z</time>
      </trkpt>
      <trkpt lat="43.41827" lon="-0.40021">
        <ele>200.09</ele>
        <time>2012-10-02T12:33:48Z</time>
      </trkpt>
      <trkpt lat="43.41836" lon="-0.40017">
        <ele>200.09</ele>
        <time>2012-10-02T12:33:56Z</time>
      </trkpt>
      <trkpt lat="43.41846" lon="-0.40013">
        <ele>200.57</ele>
        <time>2012-10-02T12:34:05Z</time>
      </trkpt>
      <trkpt lat="43.41856" lon="-0.40011">
        <ele>201.05</ele>
        <time>2012-10-02T12:34:14Z</time>
      </trkpt>
      <trkpt lat="43.41865" lon="-0.40009">
        <ele>201.05</ele>
        <time>2012-10-02T12:34:22Z</time>
      </trkpt>
      <trkpt lat="43.41875" lon="-0.40005">
        <ele>202.01</ele>
        <time>2012-10-02T12:34:31Z</time>
      </trkpt>
      <trkpt lat="43.41884" lon="-0.40003">
        <ele>201.53</ele>
        <time>2012-10-02T12:34:39Z</time>
      </trkpt>
      <trkpt lat="43.41894" lon="-0.4">
        <ele>202.49</ele>
        <time>2012-10-02T12:34:48Z</time>
      </trkpt>
      <trkpt lat="43.41903" lon="-0.39996">
        <ele>202.98</ele>
        <time>2012-10-02T12:34:57Z</time>
      </trkpt>
      <trkpt lat="43.41913" lon="-0.39993">
        <ele>203.46</ele>
        <time>2012-10-02T12:35:06Z</time>
      </trkpt>
      <trkpt lat="43.41922" lon="-0.39988">
        <ele>204.42</ele>
        <time>2012-10-02T12:35:15Z</time>
      </trkpt>
      <trkpt lat="43.41933" lon="-0.39986">
        <ele>204.9</ele>
        <time>2012-10-02T12:35:24Z</time>
      </trkpt>
      <trkpt lat="43.41942" lon="-0.39983">
        <ele>205.38</ele>
        <time>2012-10-02T12:35:32Z</time>
      </trkpt>
      <trkpt lat="43.41951" lon="-0.39978">
        <ele>205.86</ele>
        <time>2012-10-02T12:35:41Z</time>
      </trkpt>
      <trkpt lat="43.41959" lon="-0.3997">
        <ele>206.82</ele>
        <time>2012-10-02T12:35:50Z</time>
      </trkpt>
      <trkpt lat="43.41966" lon="-0.39961">
        <ele>206.82</ele>
        <time>2012-10-02T12:36:00Z</time>
      </trkpt>
      <trkpt lat="43.41973" lon="-0.39952">
        <ele>207.78</ele>
        <time>2012-10-02T12:36:09Z</time>
      </trkpt>
      <trkpt lat="43.4198" lon="-0.39944">
        <ele>208.26</ele>
        <time>2012-10-02T12:36:18Z</time>
      </trkpt>
      <trkpt lat="43.41986" lon="-0.39935">
        <ele>209.22</ele>
        <time>2012-10-02T12:36:27Z</time>
      </trkpt>
      <trkpt lat="43.41993" lon="-0.39927">
        <ele>209.7</ele>
        <time>2012-10-02T12:36:36Z</time>
      </trkpt>
      <trkpt lat="43.42001" lon="-0.39918">
        <ele>210.19</ele>
        <time>2012-10-02T12:36:45Z</time>
      </trkpt>
      <trkpt lat="43.42008" lon="-0.3991">
        <ele>210.67</ele>
        <time>2012-10-02T12:36:55Z</time>
      </trkpt>
      <trkpt lat="43.42015" lon="-0.39901">
        <ele>211.63</ele>
        <time>2012-10-02T12:37:04Z</time>
      </trkpt>
      <trkpt lat="43.42022" lon="-0.39891">
        <ele>212.11</ele>
        <time>2012-10-02T12:37:14Z</time>
      </trkpt>
      <trkpt lat="43.42031" lon="-0.39881">
        <ele>212.59</ele>
        <time>2012-10-02T12:37:25Z</time>
      </trkpt>
      <trkpt lat="43.42039" lon="-0.39874">
        <ele>213.55</ele>
        <time>2012-10-02T12:37:35Z</time>
      </trkpt>
      <trkpt lat="43.42044" lon="-0.39868">
        <ele>214.03</ele>
        <time>2012-10-02T12:38:47Z</time>
      </trkpt>
      <trkpt lat="43.42051" lon="-0.3987">
        <ele>214.51</ele>
        <time>2012-10-02T12:40:32Z</time>
      </trkpt>
      <trkpt lat="43.42052" lon="-0.39882">
        <ele>214.51</ele>
        <time>2012-10-02T12:40:42Z</time>
      </trkpt>
      <trkpt lat="43.42052" lon="-0.39894">
        <ele>214.51</ele>
        <time>2012-10-02T12:40:50Z</time>
      </trkpt>
      <trkpt lat="43.42053" lon="-0.39905">
        <ele>214.51</ele>
        <time>2012-10-02T12:40:58Z</time>
      </trkpt>
      <trkpt lat="43.4205" lon="-0.39916">
        <ele>214.99</ele>
        <time>2012-10-02T12:41:06Z</time>
      </trkpt>
      <trkpt lat="43.42046" lon="-0.3993">
        <ele>214.99</ele>
        <time>2012-10-02T12:41:14Z</time>
      </trkpt>
      <trkpt lat="43.42043" lon="-0.39943">
        <ele>215.47</ele>
        <time>2012-10-02T12:41:22Z</time>
      </trkpt>
      <trkpt lat="43.42042" lon="-0.39956">
        <ele>215.95</ele>
        <time>2012-10-02T12:41:30Z</time>
      </trkpt>
      <trkpt lat="43.42041" lon="-0.3997">
        <ele>216.43</ele>
        <time>2012-10-02T12:41:38Z</time>
      </trkpt>
      <trkpt lat="43.42038" lon="-0.39983">
        <ele>216.91</ele>
        <time>2012-10-02T12:41:46Z</time>
      </trkpt>
      <trkpt lat="43.42037" lon="-0.39996">
        <ele>216.91</ele>
        <time>2012-10-02T12:41:54Z</time>
      </trkpt>
      <trkpt lat="43.42036" lon="-0.40009">
        <ele>217.4</ele>
        <time>2012-10-02T12:42:02Z</time>
      </trkpt>
      <trkpt lat="43.42033" lon="-0.40021">
        <ele>218.36</ele>
        <time>2012-10-02T12:42:10Z</time>
      </trkpt>
      <trkpt lat="43.42032" lon="-0.40034">
        <ele>218.36</ele>
        <time>2012-10-02T12:42:18Z</time>
      </trkpt>
      <trkpt lat="43.42031" lon="-0.40047">
        <ele>218.84</ele>
        <time>2012-10-02T12:42:26Z</time>
      </trkpt>
      <trkpt lat="43.42032" lon="-0.4006">
        <ele>218.84</ele>
        <time>2012-10-02T12:42:34Z</time>
      </trkpt>
      <trkpt lat="43.42034" lon="-0.40073">
        <ele>219.8</ele>
        <time>2012-10-02T12:42:42Z</time>
      </trkpt>
      <trkpt lat="43.42038" lon="-0.40086">
        <ele>219.32</ele>
        <time>2012-10-02T12:42:50Z</time>
      </trkpt>
      <trkpt lat="43.42042" lon="-0.40098">
        <ele>220.28</ele>
        <time>2012-10-02T12:42:58Z</time>
      </trkpt>
      <trkpt lat="43.42048" lon="-0.40108">
        <ele>221.24</ele>
        <time>2012-10-02T12:43:07Z</time>
      </trkpt>
      <trkpt lat="43.42053" lon="-0.4012">
        <ele>222.68</ele>
        <time>2012-10-02T12:43:16Z</time>
      </trkpt>
      <trkpt lat="43.42055" lon="-0.40133">
        <ele>222.68</ele>
        <time>2012-10-02T12:43:26Z</time>
      </trkpt>
      <trkpt lat="43.42062" lon="-0.40139">
        <ele>223.64</ele>
        <time>2012-10-02T12:43:38Z</time>
      </trkpt>
      <trkpt lat="43.42068" lon="-0.4013">
        <ele>223.64</ele>
        <time>2012-10-02T12:43:51Z</time>
      </trkpt>
      <trkpt lat="43.42072" lon="-0.40119">
        <ele>223.64</ele>
        <time>2012-10-02T12:44:04Z</time>
      </trkpt>
      <trkpt lat="43.42077" lon="-0.40109">
        <ele>223.16</ele>
        <time>2012-10-02T12:44:16Z</time>
      </trkpt>
      <trkpt lat="43.42081" lon="-0.40098">
        <ele>223.64</ele>
        <time>2012-10-02T12:44:28Z</time>
      </trkpt>
      <trkpt lat="43.42085" lon="-0.40086">
        <ele>223.16</ele>
        <time>2012-10-02T12:44:38Z</time>
      </trkpt>
      <trkpt lat="43.4209" lon="-0.40075">
        <ele>223.64</ele>
        <time>2012-10-02T12:44:48Z</time>
      </trkpt>
      <trkpt lat="43.42096" lon="-0.40065">
        <ele>223.64</ele>
        <time>2012-10-02T12:44:57Z</time>
      </trkpt>
      <trkpt lat="43.42102" lon="-0.40055">
        <ele>223.64</ele>
        <time>2012-10-02T12:45:06Z</time>
      </trkpt>
      <trkpt lat="43.42109" lon="-0.40046">
        <ele>223.64</ele>
        <time>2012-10-02T12:45:15Z</time>
      </trkpt>
      <trkpt lat="43.42117" lon="-0.4004">
        <ele>223.64</ele>
        <time>2012-10-02T12:45:23Z</time>
      </trkpt>
      <trkpt lat="43.42126" lon="-0.40035">
        <ele>224.12</ele>
        <time>2012-10-02T12:45:32Z</time>
      </trkpt>
      <trkpt lat="43.42135" lon="-0.40036">
        <ele>225.09</ele>
        <time>2012-10-02T12:45:41Z</time>
      </trkpt>
      <trkpt lat="43.42142" lon="-0.40045">
        <ele>224.12</ele>
        <time>2012-10-02T12:45:52Z</time>
      </trkpt>
      <trkpt lat="43.42149" lon="-0.40055">
        <ele>223.64</ele>
        <time>2012-10-02T12:46:01Z</time>
      </trkpt>
      <trkpt lat="43.42156" lon="-0.40064">
        <ele>223.16</ele>
        <time>2012-10-02T12:46:10Z</time>
      </trkpt>
      <trkpt lat="43.42164" lon="-0.40072">
        <ele>222.68</ele>
        <time>2012-10-02T12:46:19Z</time>
      </trkpt>
      <trkpt lat="43.42172" lon="-0.4008">
        <ele>222.2</ele>
        <time>2012-10-02T12:46:28Z</time>
      </trkpt>
      <trkpt lat="43.4218" lon="-0.40089">
        <ele>222.2</ele>
        <time>2012-10-02T12:46:37Z</time>
      </trkpt>
      <trkpt lat="43.42186" lon="-0.40097">
        <ele>221.72</ele>
        <time>2012-10-02T12:46:45Z</time>
      </trkpt>
      <trkpt lat="43.42193" lon="-0.40107">
        <ele>221.72</ele>
        <time>2012-10-02T12:46:53Z</time>
      </trkpt>
      <trkpt lat="43.42199" lon="-0.40116">
        <ele>220.76</ele>
        <time>2012-10-02T12:47:01Z</time>
      </trkpt>
      <trkpt lat="43.42204" lon="-0.40126">
        <ele>221.24</ele>
        <time>2012-10-02T12:47:09Z</time>
      </trkpt>
      <trkpt lat="43.42209" lon="-0.40137">
        <ele>220.28</ele>
        <time>2012-10-02T12:47:17Z</time>
      </trkpt>
      <trkpt lat="43.42215" lon="-0.40148">
        <ele>219.8</ele>
        <time>2012-10-02T12:47:25Z</time>
      </trkpt>
      <trkpt lat="43.42219" lon="-0.40159">
        <ele>219.8</ele>
        <time>2012-10-02T12:47:33Z</time>
      </trkpt>
      <trkpt lat="43.42223" lon="-0.40171">
        <ele>218.84</ele>
        <time>2012-10-02T12:47:41Z</time>
      </trkpt>
      <trkpt lat="43.42227" lon="-0.40183">
        <ele>218.84</ele>
        <time>2012-10-02T12:47:49Z</time>
      </trkpt>
      <trkpt lat="43.4223" lon="-0.40197">
        <ele>218.36</ele>
        <time>2012-10-02T12:47:57Z</time>
      </trkpt>
      <trkpt lat="43.42232" lon="-0.40209">
        <ele>218.36</ele>
        <time>2012-10-02T12:48:05Z</time>
      </trkpt>
      <trkpt lat="43.42234" lon="-0.40221">
        <ele>217.88</ele>
        <time>2012-10-02T12:48:13Z</time>
      </trkpt>
      <trkpt lat="43.42238" lon="-0.40233">
        <ele>218.36</ele>
        <time>2012-10-02T12:48:21Z</time>
      </trkpt>
      <trkpt lat="43.42241" lon="-0.40246">
        <ele>218.36</ele>
        <time>2012-10-02T12:48:29Z</time>
      </trkpt>
      <trkpt lat="43.42244" lon="-0.40258">
        <ele>218.36</ele>
        <time>2012-10-02T12:48:37Z</time>
      </trkpt>
      <trkpt lat="43.42247" lon="-0.40271">
        <ele>218.36</ele>
        <time>2012-10-02T12:48:45Z</time>
      </trkpt>
      <trkpt lat="43.42249" lon="-0.40282">
        <ele>218.36</ele>
        <time>2012-10-02T12:48:53Z</time>
      </trkpt>
      <trkpt lat="43.42254" lon="-0.40286">
        <ele>218.84</ele>
        <time>2012-10-02T12:49:16Z</time>
      </trkpt>
      <trkpt lat="43.42256" lon="-0.403">
        <ele>218.84</ele>
        <time>2012-10-02T12:49:27Z</time>
      </trkpt>
      <trkpt lat="43.42258" lon="-0.40314">
        <ele>218.84</ele>
        <time>2012-10-02T12:49:36Z</time>
      </trkpt>
      <trkpt lat="43.42255" lon="-0.40326">
        <ele>218.84</ele>
        <time>2012-10-02T12:49:45Z</time>
      </trkpt>
      <trkpt lat="43.42247" lon="-0.40332">
        <ele>216.91</ele>
        <time>2012-10-02T12:49:54Z</time>
      </trkpt>
      <trkpt lat="43.42239" lon="-0.40336">
        <ele>215.95</ele>
        <time>2012-10-02T12:50:05Z</time>
      </trkpt>
      <trkpt lat="43.42229" lon="-0.40339">
        <ele>214.99</ele>
        <time>2012-10-02T12:50:21Z</time>
      </trkpt>
      <trkpt lat="43.42221" lon="-0.40344">
        <ele>213.55</ele>
        <time>2012-10-02T12:50:30Z</time>
      </trkpt>
      <trkpt lat="43.42212" lon="-0.40347">
        <ele>212.11</ele>
        <time>2012-10-02T12:50:38Z</time>
      </trkpt>
      <trkpt lat="43.42202" lon="-0.40347">
        <ele>211.15</ele>
        <time>2012-10-02T12:50:47Z</time>
      </trkpt>
      <trkpt lat="43.42193" lon="-0.40348">
        <ele>209.22</ele>
        <time>2012-10-02T12:50:55Z</time>
      </trkpt>
      <trkpt lat="43.42183" lon="-0.40351">
        <ele>209.22</ele>
        <time>2012-10-02T12:51:03Z</time>
      </trkpt>
      <trkpt lat="43.42178" lon="-0.40364">
        <ele>208.74</ele>
        <time>2012-10-02T12:51:11Z</time>
      </trkpt>
      <trkpt lat="43.42177" lon="-0.40379">
        <ele>208.26</ele>
        <time>2012-10-02T12:51:19Z</time>
      </trkpt>
      <trkpt lat="43.42175" lon="-0.40395">
        <ele>207.78</ele>
        <time>2012-10-02T12:51:27Z</time>
      </trkpt>
      <trkpt lat="43.42177" lon="-0.40409">
        <ele>206.82</ele>
        <time>2012-10-02T12:51:35Z</time>
      </trkpt>
      <trkpt lat="43.42182" lon="-0.40421">
        <ele>207.78</ele>
        <time>2012-10-02T12:51:43Z</time>
      </trkpt>
      <trkpt lat="43.42189" lon="-0.40432">
        <ele>206.82</ele>
        <time>2012-10-02T12:51:52Z</time>
      </trkpt>
      <trkpt lat="43.42196" lon="-0.40442">
        <ele>206.82</ele>
        <time>2012-10-02T12:52:01Z</time>
      </trkpt>
      <trkpt lat="43.42202" lon="-0.40454">
        <ele>206.82</ele>
        <time>2012-10-02T12:52:10Z</time>
      </trkpt>
      <trkpt lat="43.42208" lon="-0.40468">
        <ele>207.78</ele>
        <time>2012-10-02T12:52:19Z</time>
      </trkpt>
      <trkpt lat="43.42212" lon="-0.40481">
        <ele>206.82</ele>
        <time>2012-10-02T12:52:28Z</time>
      </trkpt>
      <trkpt lat="43.42217" lon="-0.40493">
        <ele>206.34</ele>
        <time>2012-10-02T12:52:38Z</time>
      </trkpt>
      <trkpt lat="43.42221" lon="-0.40508">
        <ele>205.38</ele>
        <time>2012-10-02T12:52:47Z</time>
      </trkpt>
      <trkpt lat="43.42224" lon="-0.4052">
        <ele>203.46</ele>
        <time>2012-10-02T12:55:14Z</time>
      </trkpt>
      <trkpt lat="43.42227" lon="-0.40533">
        <ele>202.49</ele>
        <time>2012-10-02T12:55:24Z</time>
      </trkpt>
      <trkpt lat="43.42229" lon="-0.40547">
        <ele>202.01</ele>
        <time>2012-10-02T12:55:34Z</time>
      </trkpt>
      <trkpt lat="43.42233" lon="-0.40559">
        <ele>202.01</ele>
        <time>2012-10-02T12:55:43Z</time>
      </trkpt>
      <trkpt lat="43.42238" lon="-0.40572">
        <ele>201.53</ele>
        <time>2012-10-02T12:55:52Z</time>
      </trkpt>
      <trkpt lat="43.42245" lon="-0.40583">
        <ele>202.01</ele>
        <time>2012-10-02T12:56:01Z</time>
      </trkpt>
      <trkpt lat="43.42252" lon="-0.40593">
        <ele>202.01</ele>
        <time>2012-10-02T12:56:11Z</time>
      </trkpt>
      <trkpt lat="43.42258" lon="-0.40603">
        <ele>203.46</ele>
        <time>2012-10-02T12:56:21Z</time>
      </trkpt>
      <trkpt lat="43.4226" lon="-0.40615">
        <ele>204.42</ele>
        <time>2012-10-02T12:56:31Z</time>
      </trkpt>
      <trkpt lat="43.42258" lon="-0.40627">
        <ele>204.9</ele>
        <time>2012-10-02T12:56:40Z</time>
      </trkpt>
      <trkpt lat="43.42253" lon="-0.4064">
        <ele>204.42</ele>
        <time>2012-10-02T12:56:49Z</time>
      </trkpt>
      <trkpt lat="43.42249" lon="-0.40651">
        <ele>203.94</ele>
        <time>2012-10-02T12:56:57Z</time>
      </trkpt>
      <trkpt lat="43.42245" lon="-0.40662">
        <ele>203.94</ele>
        <time>2012-10-02T12:57:05Z</time>
      </trkpt>
      <trkpt lat="43.42241" lon="-0.40674">
        <ele>203.46</ele>
        <time>2012-10-02T12:57:13Z</time>
      </trkpt>
      <trkpt lat="43.42237" lon="-0.40686">
        <ele>202.98</ele>
        <time>2012-10-02T12:57:21Z</time>
      </trkpt>
      <trkpt lat="43.42233" lon="-0.40698">
        <ele>202.01</ele>
        <time>2012-10-02T12:57:29Z</time>
      </trkpt>
      <trkpt lat="43.42232" lon="-0.40711">
        <ele>201.53</ele>
        <time>2012-10-02T12:57:38Z</time>
      </trkpt>
      <trkpt lat="43.42231" lon="-0.40724">
        <ele>201.05</ele>
        <time>2012-10-02T12:57:46Z</time>
      </trkpt>
      <trkpt lat="43.42228" lon="-0.40737">
        <ele>200.09</ele>
        <time>2012-10-02T12:57:54Z</time>
      </trkpt>
      <trkpt lat="43.42228" lon="-0.40749">
        <ele>199.13</ele>
        <time>2012-10-02T12:58:03Z</time>
      </trkpt>
      <trkpt lat="43.42226" lon="-0.40763">
        <ele>198.65</ele>
        <time>2012-10-02T12:58:11Z</time>
      </trkpt>
      <trkpt lat="43.42226" lon="-0.40777">
        <ele>197.69</ele>
        <time>2012-10-02T12:58:20Z</time>
      </trkpt>
      <trkpt lat="43.42226" lon="-0.40791">
        <ele>197.21</ele>
        <time>2012-10-02T12:58:29Z</time>
      </trkpt>
      <trkpt lat="43.42226" lon="-0.40804">
        <ele>196.73</ele>
        <time>2012-10-02T12:58:38Z</time>
      </trkpt>
      <trkpt lat="43.42223" lon="-0.40817">
        <ele>195.77</ele>
        <time>2012-10-02T12:58:46Z</time>
      </trkpt>
      <trkpt lat="43.42222" lon="-0.40831">
        <ele>195.77</ele>
        <time>2012-10-02T12:58:54Z</time>
      </trkpt>
      <trkpt lat="43.42219" lon="-0.40844">
        <ele>195.28</ele>
        <time>2012-10-02T12:59:02Z</time>
      </trkpt>
      <trkpt lat="43.42216" lon="-0.40856">
        <ele>195.28</ele>
        <time>2012-10-02T12:59:10Z</time>
      </trkpt>
      <trkpt lat="43.42213" lon="-0.40869">
        <ele>194.8</ele>
        <time>2012-10-02T12:59:19Z</time>
      </trkpt>
      <trkpt lat="43.4221" lon="-0.4088">
        <ele>194.8</ele>
        <time>2012-10-02T12:59:27Z</time>
      </trkpt>
      <trkpt lat="43.42212" lon="-0.40893">
        <ele>194.8</ele>
        <time>2012-10-02T12:59:35Z</time>
      </trkpt>
      <trkpt lat="43.42217" lon="-0.40905">
        <ele>195.77</ele>
        <time>2012-10-02T13:00:15Z</time>
      </trkpt>
      <trkpt lat="43.42221" lon="-0.40917">
        <ele>195.77</ele>
        <time>2012-10-02T13:00:25Z</time>
      </trkpt>
      <trkpt lat="43.42225" lon="-0.40928">
        <ele>196.25</ele>
        <time>2012-10-02T13:00:35Z</time>
      </trkpt>
      <trkpt lat="43.42229" lon="-0.40941">
        <ele>197.21</ele>
        <time>2012-10-02T13:00:45Z</time>
      </trkpt>
      <trkpt lat="43.42236" lon="-0.40951">
        <ele>198.65</ele>
        <time>2012-10-02T13:00:54Z</time>
      </trkpt>
      <trkpt lat="43.42241" lon="-0.40961">
        <ele>199.13</ele>
        <time>2012-10-02T13:01:03Z</time>
      </trkpt>
      <trkpt lat="43.42247" lon="-0.40973">
        <ele>200.09</ele>
        <time>2012-10-02T13:01:13Z</time>
      </trkpt>
      <trkpt lat="43.42255" lon="-0.40981">
        <ele>201.53</ele>
        <time>2012-10-02T13:01:22Z</time>
      </trkpt>
      <trkpt lat="43.42264" lon="-0.40987">
        <ele>201.53</ele>
        <time>2012-10-02T13:01:31Z</time>
      </trkpt>
      <trkpt lat="43.42274" lon="-0.40992">
        <ele>202.01</ele>
        <time>2012-10-02T13:01:40Z</time>
      </trkpt>
      <trkpt lat="43.42283" lon="-0.40996">
        <ele>202.01</ele>
        <time>2012-10-02T13:01:49Z</time>
      </trkpt>
      <trkpt lat="43.42293" lon="-0.41">
        <ele>202.49</ele>
        <time>2012-10-02T13:01:58Z</time>
      </trkpt>
      <trkpt lat="43.42303" lon="-0.41003">
        <ele>202.49</ele>
        <time>2012-10-02T13:02:06Z</time>
      </trkpt>
      <trkpt lat="43.42313" lon="-0.41006">
        <ele>202.98</ele>
        <time>2012-10-02T13:02:16Z</time>
      </trkpt>
      <trkpt lat="43.42325" lon="-0.41009">
        <ele>204.42</ele>
        <time>2012-10-02T13:02:26Z</time>
      </trkpt>
      <trkpt lat="43.42335" lon="-0.4101">
        <ele>205.38</ele>
        <time>2012-10-02T13:02:36Z</time>
      </trkpt>
      <trkpt lat="43.42345" lon="-0.4101">
        <ele>206.82</ele>
        <time>2012-10-02T13:02:47Z</time>
      </trkpt>
      <trkpt lat="43.42355" lon="-0.41008">
        <ele>208.26</ele>
        <time>2012-10-02T13:02:58Z</time>
      </trkpt>
      <trkpt lat="43.42364" lon="-0.41008">
        <ele>209.22</ele>
        <time>2012-10-02T13:03:08Z</time>
      </trkpt>
      <trkpt lat="43.42374" lon="-0.41007">
        <ele>211.15</ele>
        <time>2012-10-02T13:03:19Z</time>
      </trkpt>
      <trkpt lat="43.42384" lon="-0.41008">
        <ele>212.59</ele>
        <time>2012-10-02T13:03:30Z</time>
      </trkpt>
      <trkpt lat="43.42394" lon="-0.4101">
        <ele>214.03</ele>
        <time>2012-10-02T13:03:40Z</time>
      </trkpt>
      <trkpt lat="43.42403" lon="-0.41013">
        <ele>215.47</ele>
        <time>2012-10-02T13:03:51Z</time>
      </trkpt>
      <trkpt lat="43.42411" lon="-0.41019">
        <ele>216.91</ele>
        <time>2012-10-02T13:04:01Z</time>
      </trkpt>
      <trkpt lat="43.42419" lon="-0.41027">
        <ele>218.36</ele>
        <time>2012-10-02T13:04:11Z</time>
      </trkpt>
      <trkpt lat="43.42426" lon="-0.41036">
        <ele>219.32</ele>
        <time>2012-10-02T13:04:21Z</time>
      </trkpt>
      <trkpt lat="43.42433" lon="-0.41046">
        <ele>220.76</ele>
        <time>2012-10-02T13:04:31Z</time>
      </trkpt>
      <trkpt lat="43.42441" lon="-0.41054">
        <ele>220.76</ele>
        <time>2012-10-02T13:04:41Z</time>
      </trkpt>
      <trkpt lat="43.42447" lon="-0.41064">
        <ele>222.68</ele>
        <time>2012-10-02T13:04:51Z</time>
      </trkpt>
      <trkpt lat="43.42454" lon="-0.41074">
        <ele>223.16</ele>
        <time>2012-10-02T13:05:02Z</time>
      </trkpt>
      <trkpt lat="43.42458" lon="-0.41086">
        <ele>225.09</ele>
        <time>2012-10-02T13:05:14Z</time>
      </trkpt>
      <trkpt lat="43.4246" lon="-0.41099">
        <ele>225.09</ele>
        <time>2012-10-02T13:05:24Z</time>
      </trkpt>
      <trkpt lat="43.42462" lon="-0.41111">
        <ele>225.57</ele>
        <time>2012-10-02T13:05:35Z</time>
      </trkpt>
      <trkpt lat="43.4247" lon="-0.41113">
        <ele>225.09</ele>
        <time>2012-10-02T13:07:52Z</time>
      </trkpt>
      <trkpt lat="43.4248" lon="-0.41109">
        <ele>226.53</ele>
        <time>2012-10-02T13:08:06Z</time>
      </trkpt>
      <trkpt lat="43.42489" lon="-0.411">
        <ele>226.05</ele>
        <time>2012-10-02T13:08:16Z</time>
      </trkpt>
      <trkpt lat="43.42495" lon="-0.4109">
        <ele>227.01</ele>
        <time>2012-10-02T13:08:24Z</time>
      </trkpt>
      <trkpt lat="43.425" lon="-0.41079">
        <ele>227.49</ele>
        <time>2012-10-02T13:08:33Z</time>
      </trkpt>
      <trkpt lat="43.42505" lon="-0.41068">
        <ele>226.53</ele>
        <time>2012-10-02T13:08:46Z</time>
      </trkpt>
      <trkpt lat="43.42508" lon="-0.41056">
        <ele>226.53</ele>
        <time>2012-10-02T13:08:59Z</time>
      </trkpt>
      <trkpt lat="43.42512" lon="-0.41045">
        <ele>225.09</ele>
        <time>2012-10-02T13:09:09Z</time>
      </trkpt>
      <trkpt lat="43.42517" lon="-0.41034">
        <ele>224.61</ele>
        <time>2012-10-02T13:09:19Z</time>
      </trkpt>
      <trkpt lat="43.42523" lon="-0.41023">
        <ele>224.12</ele>
        <time>2012-10-02T13:09:29Z</time>
      </trkpt>
      <trkpt lat="43.4253" lon="-0.41013">
        <ele>223.16</ele>
        <time>2012-10-02T13:09:39Z</time>
      </trkpt>
      <trkpt lat="43.42538" lon="-0.41005">
        <ele>222.2</ele>
        <time>2012-10-02T13:09:49Z</time>
      </trkpt>
      <trkpt lat="43.42547" lon="-0.40999">
        <ele>221.72</ele>
        <time>2012-10-02T13:09:59Z</time>
      </trkpt>
      <trkpt lat="43.42556" lon="-0.4099">
        <ele>221.24</ele>
        <time>2012-10-02T13:10:08Z</time>
      </trkpt>
      <trkpt lat="43.42563" lon="-0.40981">
        <ele>220.76</ele>
        <time>2012-10-02T13:10:18Z</time>
      </trkpt>
      <trkpt lat="43.4257" lon="-0.40975">
        <ele>220.28</ele>
        <time>2012-10-02T13:10:27Z</time>
      </trkpt>
      <trkpt lat="43.4258" lon="-0.40968">
        <ele>219.8</ele>
        <time>2012-10-02T13:10:36Z</time>
      </trkpt>
      <trkpt lat="43.42589" lon="-0.4096">
        <ele>219.8</ele>
        <time>2012-10-02T13:10:46Z</time>
      </trkpt>
      <trkpt lat="43.42596" lon="-0.40951">
        <ele>219.32</ele>
        <time>2012-10-02T13:10:57Z</time>
      </trkpt>
      <trkpt lat="43.42606" lon="-0.40941">
        <ele>219.8</ele>
        <time>2012-10-02T13:11:06Z</time>
      </trkpt>
      <trkpt lat="43.42611" lon="-0.40928">
        <ele>220.28</ele>
        <time>2012-10-02T13:11:15Z</time>
      </trkpt>
      <trkpt lat="43.42617" lon="-0.40915">
        <ele>221.24</ele>
        <time>2012-10-02T13:11:24Z</time>
      </trkpt>
      <trkpt lat="43.42619" lon="-0.40902">
        <ele>221.72</ele>
        <time>2012-10-02T13:11:33Z</time>
      </trkpt>
      <trkpt lat="43.42621" lon="-0.40889">
        <ele>222.68</ele>
        <time>2012-10-02T13:11:42Z</time>
      </trkpt>
      <trkpt lat="43.42622" lon="-0.40877">
        <ele>223.64</ele>
        <time>2012-10-02T13:11:51Z</time>
      </trkpt>
      <trkpt lat="43.42625" lon="-0.40865">
        <ele>224.61</ele>
        <time>2012-10-02T13:12:00Z</time>
      </trkpt>
      <trkpt lat="43.42628" lon="-0.40852">
        <ele>225.57</ele>
        <time>2012-10-02T13:12:10Z</time>
      </trkpt>
      <trkpt lat="43.42634" lon="-0.40839">
        <ele>225.57</ele>
        <time>2012-10-02T13:12:19Z</time>
      </trkpt>
      <trkpt lat="43.42641" lon="-0.40826">
        <ele>227.01</ele>
        <time>2012-10-02T13:12:29Z</time>
      </trkpt>
      <trkpt lat="43.42646" lon="-0.40815">
        <ele>227.01</ele>
        <time>2012-10-02T13:12:38Z</time>
      </trkpt>
      <trkpt lat="43.42651" lon="-0.40804">
        <ele>227.01</ele>
        <time>2012-10-02T13:12:46Z</time>
      </trkpt>
      <trkpt lat="43.42656" lon="-0.40793">
        <ele>227.01</ele>
        <time>2012-10-02T13:12:55Z</time>
      </trkpt>
      <trkpt lat="43.42662" lon="-0.40782">
        <ele>227.01</ele>
        <time>2012-10-02T13:13:04Z</time>
      </trkpt>
      <trkpt lat="43.42668" lon="-0.40772">
        <ele>227.01</ele>
        <time>2012-10-02T13:13:13Z</time>
      </trkpt>
      <trkpt lat="43.42675" lon="-0.4076">
        <ele>227.01</ele>
        <time>2012-10-02T13:13:22Z</time>
      </trkpt>
      <trkpt lat="43.42679" lon="-0.40749">
        <ele>227.01</ele>
        <time>2012-10-02T13:13:31Z</time>
      </trkpt>
      <trkpt lat="43.4268" lon="-0.40734">
        <ele>227.97</ele>
        <time>2012-10-02T13:13:40Z</time>
      </trkpt>
      <trkpt lat="43.42677" lon="-0.40721">
        <ele>228.45</ele>
        <time>2012-10-02T13:13:49Z</time>
      </trkpt>
      <trkpt lat="43.42675" lon="-0.40707">
        <ele>229.41</ele>
        <time>2012-10-02T13:13:58Z</time>
      </trkpt>
      <trkpt lat="43.42672" lon="-0.40694">
        <ele>229.89</ele>
        <time>2012-10-02T13:14:08Z</time>
      </trkpt>
      <trkpt lat="43.4267" lon="-0.40681">
        <ele>231.33</ele>
        <time>2012-10-02T13:14:18Z</time>
      </trkpt>
      <trkpt lat="43.42669" lon="-0.40668">
        <ele>232.3</ele>
        <time>2012-10-02T13:14:28Z</time>
      </trkpt>
      <trkpt lat="43.42664" lon="-0.40655">
        <ele>232.78</ele>
        <time>2012-10-02T13:14:38Z</time>
      </trkpt>
      <trkpt lat="43.4266" lon="-0.40643">
        <ele>233.26</ele>
        <time>2012-10-02T13:14:48Z</time>
      </trkpt>
      <trkpt lat="43.42656" lon="-0.40632">
        <ele>233.74</ele>
        <time>2012-10-02T13:14:57Z</time>
      </trkpt>
      <trkpt lat="43.42651" lon="-0.4062">
        <ele>234.22</ele>
        <time>2012-10-02T13:15:06Z</time>
      </trkpt>
      <trkpt lat="43.42646" lon="-0.40609">
        <ele>234.7</ele>
        <time>2012-10-02T13:15:15Z</time>
      </trkpt>
      <trkpt lat="43.4264" lon="-0.40597">
        <ele>235.18</ele>
        <time>2012-10-02T13:15:25Z</time>
      </trkpt>
      <trkpt lat="43.42635" lon="-0.40587">
        <ele>235.66</ele>
        <time>2012-10-02T13:15:34Z</time>
      </trkpt>
      <trkpt lat="43.42629" lon="-0.40576">
        <ele>236.62</ele>
        <time>2012-10-02T13:15:44Z</time>
      </trkpt>
      <trkpt lat="43.42623" lon="-0.40565">
        <ele>237.58</ele>
        <time>2012-10-02T13:15:53Z</time>
      </trkpt>
      <trkpt lat="43.42617" lon="-0.40555">
        <ele>237.58</ele>
        <time>2012-10-02T13:16:04Z</time>
      </trkpt>
      <trkpt lat="43.42613" lon="-0.40543">
        <ele>238.54</ele>
        <time>2012-10-02T13:16:15Z</time>
      </trkpt>
      <trkpt lat="43.42606" lon="-0.40532">
        <ele>239.51</ele>
        <time>2012-10-02T13:16:24Z</time>
      </trkpt>
      <trkpt lat="43.42601" lon="-0.40521">
        <ele>239.51</ele>
        <time>2012-10-02T13:16:33Z</time>
      </trkpt>
      <trkpt lat="43.42595" lon="-0.4051">
        <ele>239.99</ele>
        <time>2012-10-02T13:16:42Z</time>
      </trkpt>
      <trkpt lat="43.42588" lon="-0.40501">
        <ele>240.47</ele>
        <time>2012-10-02T13:16:52Z</time>
      </trkpt>
      <trkpt lat="43.4258" lon="-0.40494">
        <ele>239.99</ele>
        <time>2012-10-02T13:17:01Z</time>
      </trkpt>
      <trkpt lat="43.42573" lon="-0.40485">
        <ele>239.99</ele>
        <time>2012-10-02T13:17:10Z</time>
      </trkpt>
      <trkpt lat="43.4257" lon="-0.40475">
        <ele>239.99</ele>
        <time>2012-10-02T13:17:19Z</time>
      </trkpt>
      <trkpt lat="43.4257" lon="-0.40462">
        <ele>239.99</ele>
        <time>2012-10-02T13:17:28Z</time>
      </trkpt>
      <trkpt lat="43.42567" lon="-0.4045">
        <ele>240.95</ele>
        <time>2012-10-02T13:17:37Z</time>
      </trkpt>
      <trkpt lat="43.42562" lon="-0.40437">
        <ele>241.43</ele>
        <time>2012-10-02T13:17:46Z</time>
      </trkpt>
      <trkpt lat="43.42557" lon="-0.40425">
        <ele>241.91</ele>
        <time>2012-10-02T13:17:55Z</time>
      </trkpt>
      <trkpt lat="43.42553" lon="-0.40415">
        <ele>242.39</ele>
        <time>2012-10-02T13:18:04Z</time>
      </trkpt>
      <trkpt lat="43.42547" lon="-0.40405">
        <ele>242.87</ele>
        <time>2012-10-02T13:18:13Z</time>
      </trkpt>
      <trkpt lat="43.42542" lon="-0.40394">
        <ele>242.87</ele>
        <time>2012-10-02T13:18:22Z</time>
      </trkpt>
      <trkpt lat="43.42538" lon="-0.40383">
        <ele>243.35</ele>
        <time>2012-10-02T13:18:34Z</time>
      </trkpt>
      <trkpt lat="43.42534" lon="-0.40372">
        <ele>243.83</ele>
        <time>2012-10-02T13:18:54Z</time>
      </trkpt>
      <trkpt lat="43.42531" lon="-0.40374">
        <ele>243.35</ele>
        <time>2012-10-02T13:20:29Z</time>
      </trkpt>
      <trkpt lat="43.42528" lon="-0.40363">
        <ele>243.83</ele>
        <time>2012-10-02T13:20:44Z</time>
      </trkpt>
      <trkpt lat="43.42523" lon="-0.40352">
        <ele>244.31</ele>
        <time>2012-10-02T13:20:53Z</time>
      </trkpt>
      <trkpt lat="43.42519" lon="-0.40339">
        <ele>245.27</ele>
        <time>2012-10-02T13:21:02Z</time>
      </trkpt>
      <trkpt lat="43.42514" lon="-0.40327">
        <ele>246.23</ele>
        <time>2012-10-02T13:21:11Z</time>
      </trkpt>
      <trkpt lat="43.42511" lon="-0.40315">
        <ele>247.68</ele>
        <time>2012-10-02T13:21:20Z</time>
      </trkpt>
      <trkpt lat="43.42506" lon="-0.40304">
        <ele>248.64</ele>
        <time>2012-10-02T13:21:29Z</time>
      </trkpt>
      <trkpt lat="43.42502" lon="-0.40293">
        <ele>250.08</ele>
        <time>2012-10-02T13:21:38Z</time>
      </trkpt>
      <trkpt lat="43.42499" lon="-0.40281">
        <ele>251.52</ele>
        <time>2012-10-02T13:21:47Z</time>
      </trkpt>
      <trkpt lat="43.42496" lon="-0.40268">
        <ele>252.96</ele>
        <time>2012-10-02T13:21:56Z</time>
      </trkpt>
      <trkpt lat="43.42494" lon="-0.40255">
        <ele>253.93</ele>
        <time>2012-10-02T13:22:05Z</time>
      </trkpt>
      <trkpt lat="43.42492" lon="-0.40242">
        <ele>254.89</ele>
        <time>2012-10-02T13:22:14Z</time>
      </trkpt>
      <trkpt lat="43.42493" lon="-0.40229">
        <ele>255.85</ele>
        <time>2012-10-02T13:22:23Z</time>
      </trkpt>
      <trkpt lat="43.42495" lon="-0.40216">
        <ele>256.33</ele>
        <time>2012-10-02T13:22:31Z</time>
      </trkpt>
      <trkpt lat="43.42496" lon="-0.40204">
        <ele>257.29</ele>
        <time>2012-10-02T13:22:39Z</time>
      </trkpt>
      <trkpt lat="43.42497" lon="-0.40191">
        <ele>257.77</ele>
        <time>2012-10-02T13:22:47Z</time>
      </trkpt>
      <trkpt lat="43.42498" lon="-0.40179">
        <ele>258.25</ele>
        <time>2012-10-02T13:22:55Z</time>
      </trkpt>
      <trkpt lat="43.42499" lon="-0.40166">
        <ele>258.73</ele>
        <time>2012-10-02T13:23:03Z</time>
      </trkpt>
      <trkpt lat="43.42498" lon="-0.40153">
        <ele>259.69</ele>
        <time>2012-10-02T13:23:11Z</time>
      </trkpt>
      <trkpt lat="43.42496" lon="-0.4014">
        <ele>259.69</ele>
        <time>2012-10-02T13:23:19Z</time>
      </trkpt>
      <trkpt lat="43.42493" lon="-0.40128">
        <ele>259.69</ele>
        <time>2012-10-02T13:23:26Z</time>
      </trkpt>
      <trkpt lat="43.42492" lon="-0.40115">
        <ele>260.65</ele>
        <time>2012-10-02T13:23:34Z</time>
      </trkpt>
      <trkpt lat="43.42489" lon="-0.40103">
        <ele>260.65</ele>
        <time>2012-10-02T13:23:42Z</time>
      </trkpt>
      <trkpt lat="43.42487" lon="-0.40089">
        <ele>260.65</ele>
        <time>2012-10-02T13:23:50Z</time>
      </trkpt>
      <trkpt lat="43.42484" lon="-0.40076">
        <ele>261.14</ele>
        <time>2012-10-02T13:23:58Z</time>
      </trkpt>
      <trkpt lat="43.42481" lon="-0.40063">
        <ele>261.14</ele>
        <time>2012-10-02T13:24:06Z</time>
      </trkpt>
      <trkpt lat="43.42479" lon="-0.4005">
        <ele>260.65</ele>
        <time>2012-10-02T13:24:14Z</time>
      </trkpt>
      <trkpt lat="43.42475" lon="-0.40038">
        <ele>260.65</ele>
        <time>2012-10-02T13:24:22Z</time>
      </trkpt>
      <trkpt lat="43.42472" lon="-0.40025">
        <ele>260.65</ele>
        <time>2012-10-02T13:24:30Z</time>
      </trkpt>
      <trkpt lat="43.42469" lon="-0.40013">
        <ele>260.65</ele>
        <time>2012-10-02T13:24:38Z</time>
      </trkpt>
      <trkpt lat="43.42465" lon="-0.4">
        <ele>260.65</ele>
        <time>2012-10-02T13:24:46Z</time>
      </trkpt>
      <trkpt lat="43.42461" lon="-0.39988">
        <ele>260.17</ele>
        <time>2012-10-02T13:24:54Z</time>
      </trkpt>
      <trkpt lat="43.42457" lon="-0.39976">
        <ele>260.17</ele>
        <time>2012-10-02T13:25:02Z</time>
      </trkpt>
      <trkpt lat="43.42452" lon="-0.39965">
        <ele>260.17</ele>
        <time>2012-10-02T13:25:10Z</time>
      </trkpt>
      <trkpt lat="43.42448" lon="-0.39953">
        <ele>260.65</ele>
        <time>2012-10-02T13:25:18Z</time>
      </trkpt>
      <trkpt lat="43.42443" lon="-0.39942">
        <ele>260.17</ele>
        <time>2012-10-02T13:25:26Z</time>
      </trkpt>
      <trkpt lat="43.42437" lon="-0.39931">
        <ele>260.17</ele>
        <time>2012-10-02T13:25:34Z</time>
      </trkpt>
      <trkpt lat="43.42433" lon="-0.39919">
        <ele>259.69</ele>
        <time>2012-10-02T13:25:42Z</time>
      </trkpt>
      <trkpt lat="43.42427" lon="-0.39908">
        <ele>260.17</ele>
        <time>2012-10-02T13:25:50Z</time>
      </trkpt>
      <trkpt lat="43.42423" lon="-0.39897">
        <ele>259.69</ele>
        <time>2012-10-02T13:25:57Z</time>
      </trkpt>
      <trkpt lat="43.42418" lon="-0.39887">
        <ele>259.21</ele>
        <time>2012-10-02T13:26:04Z</time>
      </trkpt>
      <trkpt lat="43.42413" lon="-0.39875">
        <ele>259.21</ele>
        <time>2012-10-02T13:26:12Z</time>
      </trkpt>
      <trkpt lat="43.42408" lon="-0.39864">
        <ele>259.21</ele>
        <time>2012-10-02T13:26:20Z</time>
      </trkpt>
      <trkpt lat="43.42403" lon="-0.39852">
        <ele>258.25</ele>
        <time>2012-10-02T13:26:29Z</time>
      </trkpt>
      <trkpt lat="43.42398" lon="-0.3984">
        <ele>257.77</ele>
        <time>2012-10-02T13:26:38Z</time>
      </trkpt>
      <trkpt lat="43.42393" lon="-0.39829">
        <ele>258.25</ele>
        <time>2012-10-02T13:26:47Z</time>
      </trkpt>
      <trkpt lat="43.42388" lon="-0.39819">
        <ele>258.25</ele>
        <time>2012-10-02T13:26:57Z</time>
      </trkpt>
      <trkpt lat="43.42385" lon="-0.39807">
        <ele>257.77</ele>
        <time>2012-10-02T13:27:06Z</time>
      </trkpt>
      <trkpt lat="43.42381" lon="-0.39796">
        <ele>257.77</ele>
        <time>2012-10-02T13:27:15Z</time>
      </trkpt>
      <trkpt lat="43.42377" lon="-0.39785">
        <ele>257.77</ele>
        <time>2012-10-02T13:27:24Z</time>
      </trkpt>
      <trkpt lat="43.42373" lon="-0.39772">
        <ele>258.25</ele>
        <time>2012-10-02T13:27:33Z</time>
      </trkpt>
      <trkpt lat="43.42368" lon="-0.39761">
        <ele>257.77</ele>
        <time>2012-10-02T13:27:42Z</time>
      </trkpt>
      <trkpt lat="43.42363" lon="-0.39748">
        <ele>257.77</ele>
        <time>2012-10-02T13:27:51Z</time>
      </trkpt>
      <trkpt lat="43.42358" lon="-0.39736">
        <ele>257.77</ele>
        <time>2012-10-02T13:28:00Z</time>
      </trkpt>
      <trkpt lat="43.42353" lon="-0.39724">
        <ele>257.77</ele>
        <time>2012-10-02T13:28:09Z</time>
      </trkpt>
      <trkpt lat="43.42348" lon="-0.39711">
        <ele>257.77</ele>
        <time>2012-10-02T13:28:18Z</time>
      </trkpt>
      <trkpt lat="43.42344" lon="-0.39698">
        <ele>258.25</ele>
        <time>2012-10-02T13:28:27Z</time>
      </trkpt>
      <trkpt lat="43.42339" lon="-0.39686">
        <ele>258.73</ele>
        <time>2012-10-02T13:28:36Z</time>
      </trkpt>
      <trkpt lat="43.42335" lon="-0.39674">
        <ele>258.73</ele>
        <time>2012-10-02T13:28:44Z</time>
      </trkpt>
      <trkpt lat="43.42333" lon="-0.39662">
        <ele>259.21</ele>
        <time>2012-10-02T13:28:52Z</time>
      </trkpt>
      <trkpt lat="43.42329" lon="-0.39648">
        <ele>258.73</ele>
        <time>2012-10-02T13:29:01Z</time>
      </trkpt>
      <trkpt lat="43.42328" lon="-0.39635">
        <ele>259.21</ele>
        <time>2012-10-02T13:29:10Z</time>
      </trkpt>
      <trkpt lat="43.42327" lon="-0.39617">
        <ele>259.69</ele>
        <time>2012-10-02T13:29:21Z</time>
      </trkpt>
      <trkpt lat="43.42326" lon="-0.39602">
        <ele>260.17</ele>
        <time>2012-10-02T13:29:30Z</time>
      </trkpt>
      <trkpt lat="43.42322" lon="-0.3959">
        <ele>260.65</ele>
        <time>2012-10-02T13:29:38Z</time>
      </trkpt>
      <trkpt lat="43.42316" lon="-0.39576">
        <ele>261.14</ele>
        <time>2012-10-02T13:29:47Z</time>
      </trkpt>
      <trkpt lat="43.42307" lon="-0.39564">
        <ele>262.1</ele>
        <time>2012-10-02T13:29:56Z</time>
      </trkpt>
      <trkpt lat="43.42296" lon="-0.39559">
        <ele>262.58</ele>
        <time>2012-10-02T13:30:05Z</time>
      </trkpt>
      <trkpt lat="43.42285" lon="-0.39557">
        <ele>263.06</ele>
        <time>2012-10-02T13:30:22Z</time>
      </trkpt>
      <trkpt lat="43.42278" lon="-0.39551">
        <ele>263.06</ele>
        <time>2012-10-02T13:33:05Z</time>
      </trkpt>
      <trkpt lat="43.42279" lon="-0.39543">
        <ele>263.54</ele>
        <time>2012-10-02T13:33:47Z</time>
      </trkpt>
      <trkpt lat="43.42281" lon="-0.3953">
        <ele>264.02</ele>
        <time>2012-10-02T13:34:35Z</time>
      </trkpt>
      <trkpt lat="43.42283" lon="-0.39519">
        <ele>264.02</ele>
        <time>2012-10-02T13:34:49Z</time>
      </trkpt>
      <trkpt lat="43.42286" lon="-0.39507">
        <ele>264.5</ele>
        <time>2012-10-02T13:35:04Z</time>
      </trkpt>
      <trkpt lat="43.42288" lon="-0.39493">
        <ele>264.02</ele>
        <time>2012-10-02T13:35:19Z</time>
      </trkpt>
      <trkpt lat="43.42291" lon="-0.39483">
        <ele>264.5</ele>
        <time>2012-10-02T13:35:33Z</time>
      </trkpt>
      <trkpt lat="43.42293" lon="-0.39469">
        <ele>264.02</ele>
        <time>2012-10-02T13:35:45Z</time>
      </trkpt>
      <trkpt lat="43.42295" lon="-0.39456">
        <ele>264.5</ele>
        <time>2012-10-02T13:35:55Z</time>
      </trkpt>
      <trkpt lat="43.42299" lon="-0.39442">
        <ele>264.02</ele>
        <time>2012-10-02T13:36:07Z</time>
      </trkpt>
      <trkpt lat="43.42301" lon="-0.39428">
        <ele>264.02</ele>
        <time>2012-10-02T13:36:19Z</time>
      </trkpt>
      <trkpt lat="43.42305" lon="-0.39412">
        <ele>263.54</ele>
        <time>2012-10-02T13:36:32Z</time>
      </trkpt>
      <trkpt lat="43.42308" lon="-0.39399">
        <ele>263.06</ele>
        <time>2012-10-02T13:36:44Z</time>
      </trkpt>
      <trkpt lat="43.4231" lon="-0.39384">
        <ele>263.06</ele>
        <time>2012-10-02T13:36:55Z</time>
      </trkpt>
      <trkpt lat="43.4231" lon="-0.3937">
        <ele>262.58</ele>
        <time>2012-10-02T13:37:07Z</time>
      </trkpt>
      <trkpt lat="43.42313" lon="-0.39357">
        <ele>263.06</ele>
        <time>2012-10-02T13:37:21Z</time>
      </trkpt>
      <trkpt lat="43.42315" lon="-0.39342">
        <ele>263.06</ele>
        <time>2012-10-02T13:37:37Z</time>
      </trkpt>
      <trkpt lat="43.42318" lon="-0.39329">
        <ele>263.06</ele>
        <time>2012-10-02T13:37:46Z</time>
      </trkpt>
      <trkpt lat="43.42321" lon="-0.39315">
        <ele>262.58</ele>
        <time>2012-10-02T13:37:59Z</time>
      </trkpt>
      <trkpt lat="43.42323" lon="-0.39302">
        <ele>263.06</ele>
        <time>2012-10-02T13:38:09Z</time>
      </trkpt>
      <trkpt lat="43.42327" lon="-0.39289">
        <ele>263.54</ele>
        <time>2012-10-02T13:38:24Z</time>
      </trkpt>
      <trkpt lat="43.42329" lon="-0.39277">
        <ele>264.02</ele>
        <time>2012-10-02T13:38:36Z</time>
      </trkpt>
      <trkpt lat="43.42329" lon="-0.39265">
        <ele>264.02</ele>
        <time>2012-10-02T13:38:57Z</time>
      </trkpt>
      <trkpt lat="43.42332" lon="-0.39251">
        <ele>264.5</ele>
        <time>2012-10-02T13:39:08Z</time>
      </trkpt>
      <trkpt lat="43.42335" lon="-0.39237">
        <ele>265.46</ele>
        <time>2012-10-02T13:39:21Z</time>
      </trkpt>
      <trkpt lat="43.42339" lon="-0.39224">
        <ele>265.46</ele>
        <time>2012-10-02T13:39:30Z</time>
      </trkpt>
      <trkpt lat="43.42342" lon="-0.3921">
        <ele>265.94</ele>
        <time>2012-10-02T13:39:39Z</time>
      </trkpt>
      <trkpt lat="43.42345" lon="-0.39198">
        <ele>265.94</ele>
        <time>2012-10-02T13:39:48Z</time>
      </trkpt>
      <trkpt lat="43.42347" lon="-0.39186">
        <ele>266.42</ele>
        <time>2012-10-02T13:39:57Z</time>
      </trkpt>
      <trkpt lat="43.42348" lon="-0.39172">
        <ele>267.38</ele>
        <time>2012-10-02T13:40:06Z</time>
      </trkpt>
      <trkpt lat="43.42351" lon="-0.39159">
        <ele>266.42</ele>
        <time>2012-10-02T13:40:16Z</time>
      </trkpt>
      <trkpt lat="43.42353" lon="-0.39146">
        <ele>267.86</ele>
        <time>2012-10-02T13:40:26Z</time>
      </trkpt>
      <trkpt lat="43.42355" lon="-0.39131">
        <ele>267.86</ele>
        <time>2012-10-02T13:40:36Z</time>
      </trkpt>
      <trkpt lat="43.42358" lon="-0.39118">
        <ele>268.35</ele>
        <time>2012-10-02T13:40:45Z</time>
      </trkpt>
      <trkpt lat="43.4236" lon="-0.39105">
        <ele>268.35</ele>
        <time>2012-10-02T13:40:54Z</time>
      </trkpt>
      <trkpt lat="43.42363" lon="-0.39091">
        <ele>268.35</ele>
        <time>2012-10-02T13:41:03Z</time>
      </trkpt>
      <trkpt lat="43.42365" lon="-0.3908">
        <ele>269.31</ele>
        <time>2012-10-02T13:41:11Z</time>
      </trkpt>
      <trkpt lat="43.42367" lon="-0.39067">
        <ele>269.79</ele>
        <time>2012-10-02T13:41:20Z</time>
      </trkpt>
      <trkpt lat="43.4237" lon="-0.39054">
        <ele>269.79</ele>
        <time>2012-10-02T13:41:28Z</time>
      </trkpt>
      <trkpt lat="43.42372" lon="-0.3904">
        <ele>269.79</ele>
        <time>2012-10-02T13:41:37Z</time>
      </trkpt>
      <trkpt lat="43.42376" lon="-0.39025">
        <ele>270.27</ele>
        <time>2012-10-02T13:41:47Z</time>
      </trkpt>
      <trkpt lat="43.42379" lon="-0.3901">
        <ele>270.27</ele>
        <time>2012-10-02T13:41:57Z</time>
      </trkpt>
      <trkpt lat="43.4238" lon="-0.38996">
        <ele>270.27</ele>
        <time>2012-10-02T13:42:07Z</time>
      </trkpt>
      <trkpt lat="43.42383" lon="-0.38982">
        <ele>270.27</ele>
        <time>2012-10-02T13:42:17Z</time>
      </trkpt>
      <trkpt lat="43.42386" lon="-0.38968">
        <ele>269.79</ele>
        <time>2012-10-02T13:42:28Z</time>
      </trkpt>
      <trkpt lat="43.42387" lon="-0.38954">
        <ele>269.79</ele>
        <time>2012-10-02T13:42:39Z</time>
      </trkpt>
      <trkpt lat="43.42389" lon="-0.38941">
        <ele>268.83</ele>
        <time>2012-10-02T13:42:50Z</time>
      </trkpt>
      <trkpt lat="43.42388" lon="-0.38929">
        <ele>268.35</ele>
        <time>2012-10-02T13:43:04Z</time>
      </trkpt>
      <trkpt lat="43.42384" lon="-0.38917">
        <ele>267.86</ele>
        <time>2012-10-02T13:43:16Z</time>
      </trkpt>
      <trkpt lat="43.4238" lon="-0.38904">
        <ele>268.35</ele>
        <time>2012-10-02T13:43:26Z</time>
      </trkpt>
      <trkpt lat="43.42376" lon="-0.38892">
        <ele>268.35</ele>
        <time>2012-10-02T13:43:35Z</time>
      </trkpt>
      <trkpt lat="43.4237" lon="-0.3888">
        <ele>267.86</ele>
        <time>2012-10-02T13:43:44Z</time>
      </trkpt>
      <trkpt lat="43.42364" lon="-0.3887">
        <ele>267.86</ele>
        <time>2012-10-02T13:43:53Z</time>
      </trkpt>
      <trkpt lat="43.42359" lon="-0.3886">
        <ele>267.86</ele>
        <time>2012-10-02T13:44:02Z</time>
      </trkpt>
      <trkpt lat="43.42354" lon="-0.38849">
        <ele>267.86</ele>
        <time>2012-10-02T13:44:11Z</time>
      </trkpt>
      <trkpt lat="43.42349" lon="-0.38839">
        <ele>267.86</ele>
        <time>2012-10-02T13:44:20Z</time>
      </trkpt>
      <trkpt lat="43.42344" lon="-0.38828">
        <ele>268.35</ele>
        <time>2012-10-02T13:44:30Z</time>
      </trkpt>
      <trkpt lat="43.42338" lon="-0.38816">
        <ele>267.86</ele>
        <time>2012-10-02T13:44:39Z</time>
      </trkpt>
      <trkpt lat="43.42333" lon="-0.38805">
        <ele>267.86</ele>
        <time>2012-10-02T13:44:48Z</time>
      </trkpt>
      <trkpt lat="43.42327" lon="-0.38795">
        <ele>267.86</ele>
        <time>2012-10-02T13:45:00Z</time>
      </trkpt>
      <trkpt lat="43.42323" lon="-0.38783">
        <ele>267.38</ele>
        <time>2012-10-02T13:45:10Z</time>
      </trkpt>
      <trkpt lat="43.42315" lon="-0.38771">
        <ele>267.38</ele>
        <time>2012-10-02T13:45:20Z</time>
      </trkpt>
      <trkpt lat="43.4231" lon="-0.38761">
        <ele>267.38</ele>
        <time>2012-10-02T13:45:29Z</time>
      </trkpt>
      <trkpt lat="43.42307" lon="-0.3875">
        <ele>267.86</ele>
        <time>2012-10-02T13:45:38Z</time>
      </trkpt>
      <trkpt lat="43.423" lon="-0.38739">
        <ele>268.35</ele>
        <time>2012-10-02T13:45:47Z</time>
      </trkpt>
      <trkpt lat="43.42294" lon="-0.38726">
        <ele>267.86</ele>
        <time>2012-10-02T13:45:57Z</time>
      </trkpt>
      <trkpt lat="43.42287" lon="-0.38716">
        <ele>268.35</ele>
        <time>2012-10-02T13:46:07Z</time>
      </trkpt>
      <trkpt lat="43.42281" lon="-0.38705">
        <ele>268.35</ele>
        <time>2012-10-02T13:46:17Z</time>
      </trkpt>
      <trkpt lat="43.42274" lon="-0.38694">
        <ele>269.31</ele>
        <time>2012-10-02T13:46:27Z</time>
      </trkpt>
      <trkpt lat="43.42268" lon="-0.38686">
        <ele>269.31</ele>
        <time>2012-10-02T13:46:44Z</time>
      </trkpt>
      <trkpt lat="43.4227" lon="-0.38677">
        <ele>268.35</ele>
        <time>2012-10-02T13:49:52Z</time>
      </trkpt>
      <trkpt lat="43.42276" lon="-0.3866">
        <ele>265.94</ele>
        <time>2012-10-02T13:50:09Z</time>
      </trkpt>
      <trkpt lat="43.42278" lon="-0.38646">
        <ele>263.54</ele>
        <time>2012-10-02T13:50:37Z</time>
      </trkpt>
      <trkpt lat="43.42282" lon="-0.38629">
        <ele>261.62</ele>
        <time>2012-10-02T13:50:53Z</time>
      </trkpt>
      <trkpt lat="43.42286" lon="-0.38615">
        <ele>259.21</ele>
        <time>2012-10-02T13:51:08Z</time>
      </trkpt>
      <trkpt lat="43.42288" lon="-0.38602">
        <ele>257.29</ele>
        <time>2012-10-02T13:51:22Z</time>
      </trkpt>
      <trkpt lat="43.42291" lon="-0.38587">
        <ele>255.37</ele>
        <time>2012-10-02T13:51:35Z</time>
      </trkpt>
      <trkpt lat="43.42297" lon="-0.38573">
        <ele>253.44</ele>
        <time>2012-10-02T13:51:47Z</time>
      </trkpt>
      <trkpt lat="43.42302" lon="-0.38558">
        <ele>251.04</ele>
        <time>2012-10-02T13:51:59Z</time>
      </trkpt>
      <trkpt lat="43.42307" lon="-0.38545">
        <ele>249.12</ele>
        <time>2012-10-02T13:52:11Z</time>
      </trkpt>
      <trkpt lat="43.42312" lon="-0.38529">
        <ele>246.72</ele>
        <time>2012-10-02T13:52:25Z</time>
      </trkpt>
      <trkpt lat="43.42316" lon="-0.38518">
        <ele>243.83</ele>
        <time>2012-10-02T13:52:43Z</time>
      </trkpt>
      <trkpt lat="43.42324" lon="-0.38504">
        <ele>240.95</ele>
        <time>2012-10-02T13:52:56Z</time>
      </trkpt>
      <trkpt lat="43.42328" lon="-0.3849">
        <ele>239.99</ele>
        <time>2012-10-02T13:53:08Z</time>
      </trkpt>
      <trkpt lat="43.4233" lon="-0.38474">
        <ele>238.06</ele>
        <time>2012-10-02T13:53:19Z</time>
      </trkpt>
      <trkpt lat="43.42332" lon="-0.3846">
        <ele>236.62</ele>
        <time>2012-10-02T13:53:31Z</time>
      </trkpt>
      <trkpt lat="43.4233" lon="-0.38445">
        <ele>235.66</ele>
        <time>2012-10-02T13:53:41Z</time>
      </trkpt>
      <trkpt lat="43.42327" lon="-0.3843">
        <ele>233.74</ele>
        <time>2012-10-02T13:53:52Z</time>
      </trkpt>
      <trkpt lat="43.42325" lon="-0.38413">
        <ele>232.78</ele>
        <time>2012-10-02T13:54:05Z</time>
      </trkpt>
      <trkpt lat="43.42324" lon="-0.384">
        <ele>231.81</ele>
        <time>2012-10-02T13:54:16Z</time>
      </trkpt>
      <trkpt lat="43.42323" lon="-0.38387">
        <ele>230.85</ele>
        <time>2012-10-02T13:54:25Z</time>
      </trkpt>
      <trkpt lat="43.42326" lon="-0.38375">
        <ele>231.33</ele>
        <time>2012-10-02T13:54:37Z</time>
      </trkpt>
      <trkpt lat="43.42336" lon="-0.38368">
        <ele>231.81</ele>
        <time>2012-10-02T13:54:46Z</time>
      </trkpt>
      <trkpt lat="43.42345" lon="-0.3836">
        <ele>232.78</ele>
        <time>2012-10-02T13:54:56Z</time>
      </trkpt>
      <trkpt lat="43.42354" lon="-0.38351">
        <ele>233.26</ele>
        <time>2012-10-02T13:55:08Z</time>
      </trkpt>
      <trkpt lat="43.42367" lon="-0.38345">
        <ele>234.22</ele>
        <time>2012-10-02T13:55:19Z</time>
      </trkpt>
      <trkpt lat="43.42377" lon="-0.38341">
        <ele>235.18</ele>
        <time>2012-10-02T13:55:30Z</time>
      </trkpt>
      <trkpt lat="43.42387" lon="-0.38337">
        <ele>236.62</ele>
        <time>2012-10-02T13:55:41Z</time>
      </trkpt>
      <trkpt lat="43.42395" lon="-0.38335">
        <ele>237.1</ele>
        <time>2012-10-02T13:55:51Z</time>
      </trkpt>
      <trkpt lat="43.42405" lon="-0.38331">
        <ele>238.06</ele>
        <time>2012-10-02T13:56:03Z</time>
      </trkpt>
      <trkpt lat="43.42415" lon="-0.38329">
        <ele>239.02</ele>
        <time>2012-10-02T13:56:16Z</time>
      </trkpt>
      <trkpt lat="43.42425" lon="-0.38327">
        <ele>240.95</ele>
        <time>2012-10-02T13:56:29Z</time>
      </trkpt>
      <trkpt lat="43.42435" lon="-0.38322">
        <ele>241.91</ele>
        <time>2012-10-02T13:56:41Z</time>
      </trkpt>
      <trkpt lat="43.42445" lon="-0.38318">
        <ele>243.35</ele>
        <time>2012-10-02T13:56:53Z</time>
      </trkpt>
      <trkpt lat="43.42454" lon="-0.38312">
        <ele>243.83</ele>
        <time>2012-10-02T13:57:07Z</time>
      </trkpt>
      <trkpt lat="43.42466" lon="-0.38305">
        <ele>245.27</ele>
        <time>2012-10-02T13:57:21Z</time>
      </trkpt>
      <trkpt lat="43.42475" lon="-0.38299">
        <ele>246.23</ele>
        <time>2012-10-02T13:57:32Z</time>
      </trkpt>
      <trkpt lat="43.42486" lon="-0.38296">
        <ele>247.2</ele>
        <time>2012-10-02T13:57:45Z</time>
      </trkpt>
      <trkpt lat="43.42497" lon="-0.38291">
        <ele>248.64</ele>
        <time>2012-10-02T13:57:57Z</time>
      </trkpt>
      <trkpt lat="43.42505" lon="-0.38287">
        <ele>249.6</ele>
        <time>2012-10-02T13:58:07Z</time>
      </trkpt>
      <trkpt lat="43.42514" lon="-0.38282">
        <ele>251.04</ele>
        <time>2012-10-02T13:58:20Z</time>
      </trkpt>
      <trkpt lat="43.42525" lon="-0.38281">
        <ele>253.44</ele>
        <time>2012-10-02T13:58:37Z</time>
      </trkpt>
      <trkpt lat="43.42537" lon="-0.38282">
        <ele>254.41</ele>
        <time>2012-10-02T13:58:51Z</time>
      </trkpt>
      <trkpt lat="43.42549" lon="-0.38281">
        <ele>256.33</ele>
        <time>2012-10-02T13:59:05Z</time>
      </trkpt>
      <trkpt lat="43.42558" lon="-0.38278">
        <ele>257.77</ele>
        <time>2012-10-02T13:59:17Z</time>
      </trkpt>
      <trkpt lat="43.42568" lon="-0.38275">
        <ele>259.69</ele>
        <time>2012-10-02T13:59:29Z</time>
      </trkpt>
      <trkpt lat="43.42577" lon="-0.38272">
        <ele>260.65</ele>
        <time>2012-10-02T13:59:41Z</time>
      </trkpt>
      <trkpt lat="43.42585" lon="-0.38267">
        <ele>263.06</ele>
        <time>2012-10-02T13:59:54Z</time>
      </trkpt>
      <trkpt lat="43.42593" lon="-0.3826">
        <ele>263.54</ele>
        <time>2012-10-02T14:00:06Z</time>
      </trkpt>
      <trkpt lat="43.42604" lon="-0.38254">
        <ele>264.98</ele>
        <time>2012-10-02T14:00:19Z</time>
      </trkpt>
      <trkpt lat="43.42613" lon="-0.38247">
        <ele>265.94</ele>
        <time>2012-10-02T14:00:34Z</time>
      </trkpt>
      <trkpt lat="43.42624" lon="-0.38241">
        <ele>267.86</ele>
        <time>2012-10-02T14:00:46Z</time>
      </trkpt>
      <trkpt lat="43.42634" lon="-0.38239">
        <ele>267.86</ele>
        <time>2012-10-02T14:00:56Z</time>
      </trkpt>
      <trkpt lat="43.42643" lon="-0.38235">
        <ele>268.35</ele>
        <time>2012-10-02T14:01:05Z</time>
      </trkpt>
      <trkpt lat="43.42652" lon="-0.38231">
        <ele>269.31</ele>
        <time>2012-10-02T14:01:14Z</time>
      </trkpt>
      <trkpt lat="43.42661" lon="-0.38227">
        <ele>270.27</ele>
        <time>2012-10-02T14:01:23Z</time>
      </trkpt>
      <trkpt lat="43.42671" lon="-0.38223">
        <ele>270.27</ele>
        <time>2012-10-02T14:01:33Z</time>
      </trkpt>
      <trkpt lat="43.42681" lon="-0.38218">
        <ele>271.23</ele>
        <time>2012-10-02T14:01:44Z</time>
      </trkpt>
      <trkpt lat="43.42689" lon="-0.38215">
        <ele>271.23</ele>
        <time>2012-10-02T14:03:47Z</time>
      </trkpt>
      <trkpt lat="43.42699" lon="-0.38213">
        <ele>271.23</ele>
        <time>2012-10-02T14:04:00Z</time>
      </trkpt>
      <trkpt lat="43.42707" lon="-0.38209">
        <ele>271.71</ele>
        <time>2012-10-02T14:04:09Z</time>
      </trkpt>
      <trkpt lat="43.42714" lon="-0.38198">
        <ele>272.19</ele>
        <time>2012-10-02T14:04:20Z</time>
      </trkpt>
      <trkpt lat="43.42712" lon="-0.38186">
        <ele>272.19</ele>
        <time>2012-10-02T14:04:29Z</time>
      </trkpt>
      <trkpt lat="43.42711" lon="-0.38173">
        <ele>272.67</ele>
        <time>2012-10-02T14:04:37Z</time>
      </trkpt>
      <trkpt lat="43.42708" lon="-0.3816">
        <ele>272.67</ele>
        <time>2012-10-02T14:04:45Z</time>
      </trkpt>
      <trkpt lat="43.42707" lon="-0.38147">
        <ele>272.67</ele>
        <time>2012-10-02T14:04:53Z</time>
      </trkpt>
      <trkpt lat="43.42705" lon="-0.38135">
        <ele>273.15</ele>
        <time>2012-10-02T14:05:01Z</time>
      </trkpt>
      <trkpt lat="43.42704" lon="-0.38121">
        <ele>273.15</ele>
        <time>2012-10-02T14:05:09Z</time>
      </trkpt>
      <trkpt lat="43.42703" lon="-0.38109">
        <ele>273.15</ele>
        <time>2012-10-02T14:05:17Z</time>
      </trkpt>
      <trkpt lat="43.42702" lon="-0.38097">
        <ele>273.15</ele>
        <time>2012-10-02T14:05:25Z</time>
      </trkpt>
      <trkpt lat="43.42701" lon="-0.38084">
        <ele>273.63</ele>
        <time>2012-10-02T14:05:34Z</time>
      </trkpt>
      <trkpt lat="43.42699" lon="-0.38071">
        <ele>273.63</ele>
        <time>2012-10-02T14:05:42Z</time>
      </trkpt>
      <trkpt lat="43.42698" lon="-0.38059">
        <ele>274.11</ele>
        <time>2012-10-02T14:05:50Z</time>
      </trkpt>
      <trkpt lat="43.42696" lon="-0.38046">
        <ele>274.59</ele>
        <time>2012-10-02T14:05:58Z</time>
      </trkpt>
      <trkpt lat="43.42695" lon="-0.38033">
        <ele>274.59</ele>
        <time>2012-10-02T14:06:06Z</time>
      </trkpt>
      <trkpt lat="43.42694" lon="-0.38021">
        <ele>274.59</ele>
        <time>2012-10-02T14:06:14Z</time>
      </trkpt>
      <trkpt lat="43.42693" lon="-0.38008">
        <ele>275.07</ele>
        <time>2012-10-02T14:06:22Z</time>
      </trkpt>
      <trkpt lat="43.42691" lon="-0.37995">
        <ele>275.07</ele>
        <time>2012-10-02T14:06:30Z</time>
      </trkpt>
      <trkpt lat="43.42691" lon="-0.37983">
        <ele>275.56</ele>
        <time>2012-10-02T14:06:38Z</time>
      </trkpt>
      <trkpt lat="43.42689" lon="-0.3797">
        <ele>275.56</ele>
        <time>2012-10-02T14:06:46Z</time>
      </trkpt>
      <trkpt lat="43.42688" lon="-0.37957">
        <ele>275.56</ele>
        <time>2012-10-02T14:06:55Z</time>
      </trkpt>
      <trkpt lat="43.42686" lon="-0.37944">
        <ele>275.56</ele>
        <time>2012-10-02T14:07:04Z</time>
      </trkpt>
      <trkpt lat="43.42684" lon="-0.37931">
        <ele>275.56</ele>
        <time>2012-10-02T14:07:12Z</time>
      </trkpt>
      <trkpt lat="43.42681" lon="-0.3792">
        <ele>275.07</ele>
        <time>2012-10-02T14:07:20Z</time>
      </trkpt>
      <trkpt lat="43.42676" lon="-0.37909">
        <ele>275.07</ele>
        <time>2012-10-02T14:07:28Z</time>
      </trkpt>
      <trkpt lat="43.42672" lon="-0.37897">
        <ele>275.07</ele>
        <time>2012-10-02T14:07:37Z</time>
      </trkpt>
      <trkpt lat="43.42667" lon="-0.37886">
        <ele>275.56</ele>
        <time>2012-10-02T14:07:45Z</time>
      </trkpt>
      <trkpt lat="43.42662" lon="-0.37874">
        <ele>275.07</ele>
        <time>2012-10-02T14:07:53Z</time>
      </trkpt>
      <trkpt lat="43.42658" lon="-0.37863">
        <ele>275.56</ele>
        <time>2012-10-02T14:08:01Z</time>
      </trkpt>
      <trkpt lat="43.42652" lon="-0.37853">
        <ele>275.07</ele>
        <time>2012-10-02T14:08:10Z</time>
      </trkpt>
      <trkpt lat="43.42648" lon="-0.37842">
        <ele>275.56</ele>
        <time>2012-10-02T14:08:18Z</time>
      </trkpt>
      <trkpt lat="43.42643" lon="-0.37831">
        <ele>275.07</ele>
        <time>2012-10-02T14:08:26Z</time>
      </trkpt>
      <trkpt lat="43.42639" lon="-0.3782">
        <ele>275.07</ele>
        <time>2012-10-02T14:08:35Z</time>
      </trkpt>
      <trkpt lat="43.42635" lon="-0.37809">
        <ele>275.07</ele>
        <time>2012-10-02T14:08:43Z</time>
      </trkpt>
      <trkpt lat="43.4263" lon="-0.37796">
        <ele>275.07</ele>
        <time>2012-10-02T14:08:51Z</time>
      </trkpt>
      <trkpt lat="43.42625" lon="-0.37785">
        <ele>275.07</ele>
        <time>2012-10-02T14:08:59Z</time>
      </trkpt>
      <trkpt lat="43.42621" lon="-0.37773">
        <ele>275.07</ele>
        <time>2012-10-02T14:09:07Z</time>
      </trkpt>
      <trkpt lat="43.42617" lon="-0.37762">
        <ele>275.07</ele>
        <time>2012-10-02T14:09:15Z</time>
      </trkpt>
      <trkpt lat="43.42614" lon="-0.3775">
        <ele>275.56</ele>
        <time>2012-10-02T14:09:23Z</time>
      </trkpt>
      <trkpt lat="43.4261" lon="-0.37739">
        <ele>275.07</ele>
        <time>2012-10-02T14:09:31Z</time>
      </trkpt>
      <trkpt lat="43.42606" lon="-0.37726">
        <ele>275.56</ele>
        <time>2012-10-02T14:09:39Z</time>
      </trkpt>
      <trkpt lat="43.42602" lon="-0.37714">
        <ele>275.07</ele>
        <time>2012-10-02T14:09:47Z</time>
      </trkpt>
      <trkpt lat="43.42598" lon="-0.37703">
        <ele>275.56</ele>
        <time>2012-10-02T14:09:56Z</time>
      </trkpt>
      <trkpt lat="43.42595" lon="-0.3769">
        <ele>275.56</ele>
        <time>2012-10-02T14:10:06Z</time>
      </trkpt>
      <trkpt lat="43.42593" lon="-0.37677">
        <ele>275.56</ele>
        <time>2012-10-02T14:10:17Z</time>
      </trkpt>
      <trkpt lat="43.4259" lon="-0.37665">
        <ele>275.07</ele>
        <time>2012-10-02T14:10:26Z</time>
      </trkpt>
      <trkpt lat="43.42586" lon="-0.37653">
        <ele>275.56</ele>
        <time>2012-10-02T14:10:35Z</time>
      </trkpt>
      <trkpt lat="43.42583" lon="-0.3764">
        <ele>275.56</ele>
        <time>2012-10-02T14:10:44Z</time>
      </trkpt>
      <trkpt lat="43.4258" lon="-0.37628">
        <ele>275.56</ele>
        <time>2012-10-02T14:10:52Z</time>
      </trkpt>
      <trkpt lat="43.42578" lon="-0.37616">
        <ele>276.04</ele>
        <time>2012-10-02T14:11:01Z</time>
      </trkpt>
      <trkpt lat="43.42574" lon="-0.37604">
        <ele>275.56</ele>
        <time>2012-10-02T14:11:09Z</time>
      </trkpt>
      <trkpt lat="43.42571" lon="-0.37592">
        <ele>276.04</ele>
        <time>2012-10-02T14:11:17Z</time>
      </trkpt>
      <trkpt lat="43.42568" lon="-0.37579">
        <ele>275.56</ele>
        <time>2012-10-02T14:11:26Z</time>
      </trkpt>
      <trkpt lat="43.42566" lon="-0.37567">
        <ele>276.52</ele>
        <time>2012-10-02T14:11:34Z</time>
      </trkpt>
      <trkpt lat="43.42564" lon="-0.37555">
        <ele>276.04</ele>
        <time>2012-10-02T14:11:42Z</time>
      </trkpt>
      <trkpt lat="43.42564" lon="-0.37541">
        <ele>276.52</ele>
        <time>2012-10-02T14:11:50Z</time>
      </trkpt>
      <trkpt lat="43.42563" lon="-0.37528">
        <ele>276.04</ele>
        <time>2012-10-02T14:11:58Z</time>
      </trkpt>
      <trkpt lat="43.42563" lon="-0.37515">
        <ele>275.56</ele>
        <time>2012-10-02T14:12:06Z</time>
      </trkpt>
      <trkpt lat="43.42563" lon="-0.37503">
        <ele>276.04</ele>
        <time>2012-10-02T14:12:14Z</time>
      </trkpt>
      <trkpt lat="43.42563" lon="-0.3749">
        <ele>275.07</ele>
        <time>2012-10-02T14:12:22Z</time>
      </trkpt>
      <trkpt lat="43.42563" lon="-0.37477">
        <ele>275.07</ele>
        <time>2012-10-02T14:12:30Z</time>
      </trkpt>
      <trkpt lat="43.42563" lon="-0.37464">
        <ele>275.07</ele>
        <time>2012-10-02T14:12:38Z</time>
      </trkpt>
      <trkpt lat="43.42563" lon="-0.3745">
        <ele>275.07</ele>
        <time>2012-10-02T14:12:46Z</time>
      </trkpt>
      <trkpt lat="43.42563" lon="-0.37438">
        <ele>274.59</ele>
        <time>2012-10-02T14:12:54Z</time>
      </trkpt>
      <trkpt lat="43.42563" lon="-0.37425">
        <ele>274.59</ele>
        <time>2012-10-02T14:13:02Z</time>
      </trkpt>
      <trkpt lat="43.42563" lon="-0.37412">
        <ele>274.11</ele>
        <time>2012-10-02T14:13:10Z</time>
      </trkpt>
      <trkpt lat="43.42563" lon="-0.37399">
        <ele>274.11</ele>
        <time>2012-10-02T14:13:18Z</time>
      </trkpt>
      <trkpt lat="43.42563" lon="-0.37386">
        <ele>274.11</ele>
        <time>2012-10-02T14:13:26Z</time>
      </trkpt>
      <trkpt lat="43.42562" lon="-0.37372">
        <ele>274.11</ele>
        <time>2012-10-02T14:13:34Z</time>
      </trkpt>
      <trkpt lat="43.42561" lon="-0.37359">
        <ele>273.15</ele>
        <time>2012-10-02T14:13:43Z</time>
      </trkpt>
      <trkpt lat="43.42559" lon="-0.37346">
        <ele>273.63</ele>
        <time>2012-10-02T14:13:53Z</time>
      </trkpt>
      <trkpt lat="43.4255" lon="-0.37344">
        <ele>273.15</ele>
        <time>2012-10-02T14:14:17Z</time>
      </trkpt>
      <trkpt lat="43.4254" lon="-0.37344">
        <ele>272.67</ele>
        <time>2012-10-02T14:14:25Z</time>
      </trkpt>
      <trkpt lat="43.42531" lon="-0.3735">
        <ele>272.19</ele>
        <time>2012-10-02T14:14:33Z</time>
      </trkpt>
      <trkpt lat="43.42522" lon="-0.37356">
        <ele>271.71</ele>
        <time>2012-10-02T14:14:41Z</time>
      </trkpt>
      <trkpt lat="43.42514" lon="-0.3736">
        <ele>270.75</ele>
        <time>2012-10-02T14:14:49Z</time>
      </trkpt>
      <trkpt lat="43.42505" lon="-0.37366">
        <ele>269.79</ele>
        <time>2012-10-02T14:14:58Z</time>
      </trkpt>
      <trkpt lat="43.42496" lon="-0.37373">
        <ele>269.31</ele>
        <time>2012-10-02T14:15:07Z</time>
      </trkpt>
      <trkpt lat="43.42488" lon="-0.3738">
        <ele>268.83</ele>
        <time>2012-10-02T14:15:16Z</time>
      </trkpt>
      <trkpt lat="43.42479" lon="-0.37385">
        <ele>267.86</ele>
        <time>2012-10-02T14:15:26Z</time>
      </trkpt>
      <trkpt lat="43.42472" lon="-0.37386">
        <ele>267.38</ele>
        <time>2012-10-02T14:15:37Z</time>
      </trkpt>
      <trkpt lat="43.42468" lon="-0.37375">
        <ele>266.9</ele>
        <time>2012-10-02T14:15:47Z</time>
      </trkpt>
      <trkpt lat="43.42461" lon="-0.37366">
        <ele>264.98</ele>
        <time>2012-10-02T14:15:58Z</time>
      </trkpt>
      <trkpt lat="43.42453" lon="-0.37359">
        <ele>264.98</ele>
        <time>2012-10-02T14:16:10Z</time>
      </trkpt>
      <trkpt lat="43.42448" lon="-0.37346">
        <ele>264.02</ele>
        <time>2012-10-02T14:16:22Z</time>
      </trkpt>
      <trkpt lat="43.42445" lon="-0.37334">
        <ele>263.54</ele>
        <time>2012-10-02T14:16:30Z</time>
      </trkpt>
      <trkpt lat="43.4244" lon="-0.37323">
        <ele>263.06</ele>
        <time>2012-10-02T14:16:39Z</time>
      </trkpt>
      <trkpt lat="43.42439" lon="-0.37327">
        <ele>262.58</ele>
        <time>2012-10-02T14:18:37Z</time>
      </trkpt>
      <trkpt lat="43.42443" lon="-0.3734">
        <ele>263.54</ele>
        <time>2012-10-02T14:18:49Z</time>
      </trkpt>
      <trkpt lat="43.42448" lon="-0.37353">
        <ele>263.54</ele>
        <time>2012-10-02T14:19:33Z</time>
      </trkpt>
      <trkpt lat="43.42448" lon="-0.37355">
        <ele>263.06</ele>
        <time>2012-10-02T14:38:55Z</time>
      </trkpt>
      <trkpt lat="43.42443" lon="-0.37347">
        <ele>261.62</ele>
        <time>2012-10-02T14:42:30Z</time>
      </trkpt>
      <trkpt lat="43.42436" lon="-0.37336">
        <ele>260.65</ele>
        <time>2012-10-02T14:42:44Z</time>
      </trkpt>
      <trkpt lat="43.42427" lon="-0.37327">
        <ele>259.69</ele>
        <time>2012-10-02T14:42:57Z</time>
      </trkpt>
      <trkpt lat="43.42417" lon="-0.37327">
        <ele>258.25</ele>
        <time>2012-10-02T14:43:10Z</time>
      </trkpt>
      <trkpt lat="43.42408" lon="-0.37328">
        <ele>257.29</ele>
        <time>2012-10-02T14:43:20Z</time>
      </trkpt>
      <trkpt lat="43.42399" lon="-0.3733">
        <ele>256.81</ele>
        <time>2012-10-02T14:43:29Z</time>
      </trkpt>
      <trkpt lat="43.42386" lon="-0.3733">
        <ele>256.81</ele>
        <time>2012-10-02T14:43:39Z</time>
      </trkpt>
      <trkpt lat="43.42376" lon="-0.37335">
        <ele>257.77</ele>
        <time>2012-10-02T14:43:48Z</time>
      </trkpt>
      <trkpt lat="43.42367" lon="-0.37342">
        <ele>258.25</ele>
        <time>2012-10-02T14:43:57Z</time>
      </trkpt>
      <trkpt lat="43.4236" lon="-0.37354">
        <ele>258.73</ele>
        <time>2012-10-02T14:44:08Z</time>
      </trkpt>
      <trkpt lat="43.42355" lon="-0.37365">
        <ele>258.73</ele>
        <time>2012-10-02T14:44:18Z</time>
      </trkpt>
      <trkpt lat="43.42347" lon="-0.37375">
        <ele>258.73</ele>
        <time>2012-10-02T14:44:27Z</time>
      </trkpt>
      <trkpt lat="43.4234" lon="-0.37387">
        <ele>259.21</ele>
        <time>2012-10-02T14:44:36Z</time>
      </trkpt>
      <trkpt lat="43.42334" lon="-0.37397">
        <ele>259.69</ele>
        <time>2012-10-02T14:44:45Z</time>
      </trkpt>
      <trkpt lat="43.42325" lon="-0.37403">
        <ele>260.65</ele>
        <time>2012-10-02T14:44:54Z</time>
      </trkpt>
      <trkpt lat="43.42316" lon="-0.37408">
        <ele>261.14</ele>
        <time>2012-10-02T14:45:03Z</time>
      </trkpt>
      <trkpt lat="43.42308" lon="-0.37412">
        <ele>262.1</ele>
        <time>2012-10-02T14:45:12Z</time>
      </trkpt>
      <trkpt lat="43.42299" lon="-0.37413">
        <ele>262.58</ele>
        <time>2012-10-02T14:45:22Z</time>
      </trkpt>
      <trkpt lat="43.4229" lon="-0.37415">
        <ele>264.02</ele>
        <time>2012-10-02T14:45:32Z</time>
      </trkpt>
      <trkpt lat="43.4228" lon="-0.37417">
        <ele>264.5</ele>
        <time>2012-10-02T14:45:42Z</time>
      </trkpt>
      <trkpt lat="43.42271" lon="-0.37419">
        <ele>265.94</ele>
        <time>2012-10-02T14:45:53Z</time>
      </trkpt>
      <trkpt lat="43.4226" lon="-0.37421">
        <ele>266.9</ele>
        <time>2012-10-02T14:46:05Z</time>
      </trkpt>
      <trkpt lat="43.42249" lon="-0.37422">
        <ele>267.86</ele>
        <time>2012-10-02T14:46:17Z</time>
      </trkpt>
      <trkpt lat="43.42238" lon="-0.37425">
        <ele>267.86</ele>
        <time>2012-10-02T14:46:28Z</time>
      </trkpt>
      <trkpt lat="43.42227" lon="-0.37427">
        <ele>269.31</ele>
        <time>2012-10-02T14:46:39Z</time>
      </trkpt>
      <trkpt lat="43.42218" lon="-0.37429">
        <ele>270.27</ele>
        <time>2012-10-02T14:46:49Z</time>
      </trkpt>
      <trkpt lat="43.42207" lon="-0.37432">
        <ele>270.27</ele>
        <time>2012-10-02T14:47:00Z</time>
      </trkpt>
      <trkpt lat="43.42197" lon="-0.37435">
        <ele>271.23</ele>
        <time>2012-10-02T14:47:10Z</time>
      </trkpt>
      <trkpt lat="43.42189" lon="-0.37439">
        <ele>272.19</ele>
        <time>2012-10-02T14:47:22Z</time>
      </trkpt>
      <trkpt lat="43.42187" lon="-0.37456">
        <ele>272.19</ele>
        <time>2012-10-02T14:47:33Z</time>
      </trkpt>
      <trkpt lat="43.42184" lon="-0.37469">
        <ele>271.71</ele>
        <time>2012-10-02T14:47:43Z</time>
      </trkpt>
      <trkpt lat="43.42182" lon="-0.37482">
        <ele>272.19</ele>
        <time>2012-10-02T14:47:52Z</time>
      </trkpt>
      <trkpt lat="43.4218" lon="-0.37494">
        <ele>272.19</ele>
        <time>2012-10-02T14:48:01Z</time>
      </trkpt>
      <trkpt lat="43.42177" lon="-0.37507">
        <ele>272.19</ele>
        <time>2012-10-02T14:48:10Z</time>
      </trkpt>
      <trkpt lat="43.4217" lon="-0.37516">
        <ele>271.71</ele>
        <time>2012-10-02T14:48:19Z</time>
      </trkpt>
      <trkpt lat="43.4216" lon="-0.37517">
        <ele>273.63</ele>
        <time>2012-10-02T14:48:29Z</time>
      </trkpt>
      <trkpt lat="43.42151" lon="-0.37518">
        <ele>274.11</ele>
        <time>2012-10-02T14:48:38Z</time>
      </trkpt>
      <trkpt lat="43.42141" lon="-0.37518">
        <ele>275.07</ele>
        <time>2012-10-02T14:48:47Z</time>
      </trkpt>
      <trkpt lat="43.42131" lon="-0.37519">
        <ele>275.56</ele>
        <time>2012-10-02T14:48:56Z</time>
      </trkpt>
      <trkpt lat="43.4212" lon="-0.37521">
        <ele>276.52</ele>
        <time>2012-10-02T14:49:06Z</time>
      </trkpt>
      <trkpt lat="43.4211" lon="-0.37522">
        <ele>277</ele>
        <time>2012-10-02T14:49:15Z</time>
      </trkpt>
      <trkpt lat="43.42101" lon="-0.37524">
        <ele>277</ele>
        <time>2012-10-02T14:49:24Z</time>
      </trkpt>
      <trkpt lat="43.42091" lon="-0.37525">
        <ele>277.48</ele>
        <time>2012-10-02T14:49:33Z</time>
      </trkpt>
      <trkpt lat="43.42081" lon="-0.37527">
        <ele>277</ele>
        <time>2012-10-02T14:49:42Z</time>
      </trkpt>
      <trkpt lat="43.42071" lon="-0.37528">
        <ele>277</ele>
        <time>2012-10-02T14:49:51Z</time>
      </trkpt>
      <trkpt lat="43.42062" lon="-0.37529">
        <ele>276.52</ele>
        <time>2012-10-02T14:50:00Z</time>
      </trkpt>
      <trkpt lat="43.42052" lon="-0.37529">
        <ele>276.04</ele>
        <time>2012-10-02T14:50:08Z</time>
      </trkpt>
      <trkpt lat="43.42042" lon="-0.3753">
        <ele>275.07</ele>
        <time>2012-10-02T14:50:17Z</time>
      </trkpt>
      <trkpt lat="43.42033" lon="-0.37531">
        <ele>274.59</ele>
        <time>2012-10-02T14:50:25Z</time>
      </trkpt>
      <trkpt lat="43.42023" lon="-0.37532">
        <ele>273.15</ele>
        <time>2012-10-02T14:50:33Z</time>
      </trkpt>
      <trkpt lat="43.42015" lon="-0.37533">
        <ele>272.19</ele>
        <time>2012-10-02T14:50:42Z</time>
      </trkpt>
      <trkpt lat="43.42004" lon="-0.37535">
        <ele>271.71</ele>
        <time>2012-10-02T14:50:52Z</time>
      </trkpt>
      <trkpt lat="43.41993" lon="-0.37536">
        <ele>269.79</ele>
        <time>2012-10-02T14:51:02Z</time>
      </trkpt>
      <trkpt lat="43.41984" lon="-0.37535">
        <ele>268.83</ele>
        <time>2012-10-02T14:51:13Z</time>
      </trkpt>
      <trkpt lat="43.41976" lon="-0.3753">
        <ele>267.38</ele>
        <time>2012-10-02T14:51:37Z</time>
      </trkpt>
      <trkpt lat="43.41966" lon="-0.37531">
        <ele>264.98</ele>
        <time>2012-10-02T14:51:48Z</time>
      </trkpt>
      <trkpt lat="43.41954" lon="-0.37534">
        <ele>263.06</ele>
        <time>2012-10-02T14:52:00Z</time>
      </trkpt>
      <trkpt lat="43.41946" lon="-0.37536">
        <ele>260.65</ele>
        <time>2012-10-02T14:52:34Z</time>
      </trkpt>
      <trkpt lat="43.41934" lon="-0.37537">
        <ele>258.25</ele>
        <time>2012-10-02T14:52:46Z</time>
      </trkpt>
      <trkpt lat="43.41924" lon="-0.37536">
        <ele>256.33</ele>
        <time>2012-10-02T14:52:59Z</time>
      </trkpt>
      <trkpt lat="43.41914" lon="-0.37536">
        <ele>253.93</ele>
        <time>2012-10-02T14:53:12Z</time>
      </trkpt>
      <trkpt lat="43.41904" lon="-0.37536">
        <ele>251.52</ele>
        <time>2012-10-02T14:53:24Z</time>
      </trkpt>
      <trkpt lat="43.41895" lon="-0.37536">
        <ele>249.6</ele>
        <time>2012-10-02T14:53:35Z</time>
      </trkpt>
      <trkpt lat="43.41885" lon="-0.37537">
        <ele>247.68</ele>
        <time>2012-10-02T14:53:46Z</time>
      </trkpt>
      <trkpt lat="43.41875" lon="-0.37537">
        <ele>245.75</ele>
        <time>2012-10-02T14:53:57Z</time>
      </trkpt>
      <trkpt lat="43.41864" lon="-0.37534">
        <ele>243.83</ele>
        <time>2012-10-02T14:54:09Z</time>
      </trkpt>
      <trkpt lat="43.41852" lon="-0.37537">
        <ele>242.39</ele>
        <time>2012-10-02T14:54:20Z</time>
      </trkpt>
      <trkpt lat="43.41842" lon="-0.37537">
        <ele>240.95</ele>
        <time>2012-10-02T14:54:30Z</time>
      </trkpt>
      <trkpt lat="43.41833" lon="-0.37536">
        <ele>239.51</ele>
        <time>2012-10-02T14:54:39Z</time>
      </trkpt>
      <trkpt lat="43.41823" lon="-0.37537">
        <ele>238.54</ele>
        <time>2012-10-02T14:54:49Z</time>
      </trkpt>
      <trkpt lat="43.41813" lon="-0.3754">
        <ele>237.58</ele>
        <time>2012-10-02T14:54:59Z</time>
      </trkpt>
      <trkpt lat="43.41805" lon="-0.37547">
        <ele>237.1</ele>
        <time>2012-10-02T14:55:11Z</time>
      </trkpt>
      <trkpt lat="43.41798" lon="-0.37556">
        <ele>236.62</ele>
        <time>2012-10-02T14:55:20Z</time>
      </trkpt>
      <trkpt lat="43.41789" lon="-0.37562">
        <ele>235.18</ele>
        <time>2012-10-02T14:55:31Z</time>
      </trkpt>
      <trkpt lat="43.41781" lon="-0.37554">
        <ele>233.74</ele>
        <time>2012-10-02T14:55:44Z</time>
      </trkpt>
      <trkpt lat="43.41772" lon="-0.37547">
        <ele>234.22</ele>
        <time>2012-10-02T14:55:58Z</time>
      </trkpt>
      <trkpt lat="43.41761" lon="-0.37542">
        <ele>237.58</ele>
        <time>2012-10-02T14:56:12Z</time>
      </trkpt>
      <trkpt lat="43.41751" lon="-0.37541">
        <ele>239.51</ele>
        <time>2012-10-02T14:56:24Z</time>
      </trkpt>
      <trkpt lat="43.41746" lon="-0.37552">
        <ele>240.47</ele>
        <time>2012-10-02T14:56:37Z</time>
      </trkpt>
      <trkpt lat="43.41743" lon="-0.37564">
        <ele>239.51</ele>
        <time>2012-10-02T14:56:47Z</time>
      </trkpt>
      <trkpt lat="43.41737" lon="-0.37575">
        <ele>239.99</ele>
        <time>2012-10-02T14:56:59Z</time>
      </trkpt>
      <trkpt lat="43.41733" lon="-0.37589">
        <ele>239.02</ele>
        <time>2012-10-02T14:57:10Z</time>
      </trkpt>
      <trkpt lat="43.41723" lon="-0.37601">
        <ele>238.54</ele>
        <time>2012-10-02T14:57:19Z</time>
      </trkpt>
      <trkpt lat="43.41713" lon="-0.37615">
        <ele>238.54</ele>
        <time>2012-10-02T14:57:29Z</time>
      </trkpt>
      <trkpt lat="43.41709" lon="-0.37636">
        <ele>238.06</ele>
        <time>2012-10-02T14:57:42Z</time>
      </trkpt>
      <trkpt lat="43.41705" lon="-0.37653">
        <ele>238.06</ele>
        <time>2012-10-02T14:57:56Z</time>
      </trkpt>
      <trkpt lat="43.41696" lon="-0.37671">
        <ele>238.06</ele>
        <time>2012-10-02T14:58:08Z</time>
      </trkpt>
      <trkpt lat="43.41686" lon="-0.37682">
        <ele>238.54</ele>
        <time>2012-10-02T14:58:21Z</time>
      </trkpt>
      <trkpt lat="43.41677" lon="-0.37693">
        <ele>238.54</ele>
        <time>2012-10-02T14:58:33Z</time>
      </trkpt>
      <trkpt lat="43.41673" lon="-0.37709">
        <ele>238.06</ele>
        <time>2012-10-02T14:58:45Z</time>
      </trkpt>
      <trkpt lat="43.41664" lon="-0.37723">
        <ele>238.06</ele>
        <time>2012-10-02T14:58:57Z</time>
      </trkpt>
      <trkpt lat="43.41652" lon="-0.37734">
        <ele>237.58</ele>
        <time>2012-10-02T14:59:09Z</time>
      </trkpt>
      <trkpt lat="43.41642" lon="-0.37743">
        <ele>238.06</ele>
        <time>2012-10-02T14:59:21Z</time>
      </trkpt>
      <trkpt lat="43.41634" lon="-0.37759">
        <ele>238.54</ele>
        <time>2012-10-02T14:59:34Z</time>
      </trkpt>
      <trkpt lat="43.41625" lon="-0.37773">
        <ele>239.51</ele>
        <time>2012-10-02T14:59:48Z</time>
      </trkpt>
      <trkpt lat="43.41616" lon="-0.37786">
        <ele>238.54</ele>
        <time>2012-10-02T15:00:00Z</time>
      </trkpt>
      <trkpt lat="43.41608" lon="-0.37803">
        <ele>238.06</ele>
        <time>2012-10-02T15:00:11Z</time>
      </trkpt>
      <trkpt lat="43.416" lon="-0.37818">
        <ele>238.06</ele>
        <time>2012-10-02T15:00:23Z</time>
      </trkpt>
      <trkpt lat="43.41592" lon="-0.37826">
        <ele>238.06</ele>
        <time>2012-10-02T15:00:43Z</time>
      </trkpt>
      <trkpt lat="43.41584" lon="-0.3784">
        <ele>237.1</ele>
        <time>2012-10-02T15:00:55Z</time>
      </trkpt>
      <trkpt lat="43.41574" lon="-0.37852">
        <ele>236.62</ele>
        <time>2012-10-02T15:01:06Z</time>
      </trkpt>
      <trkpt lat="43.41569" lon="-0.37868">
        <ele>235.18</ele>
        <time>2012-10-02T15:01:19Z</time>
      </trkpt>
      <trkpt lat="43.4156" lon="-0.37885">
        <ele>233.26</ele>
        <time>2012-10-02T15:01:31Z</time>
      </trkpt>
      <trkpt lat="43.41558" lon="-0.37902">
        <ele>231.81</ele>
        <time>2012-10-02T15:01:42Z</time>
      </trkpt>
      <trkpt lat="43.41558" lon="-0.37919">
        <ele>230.37</ele>
        <time>2012-10-02T15:01:54Z</time>
      </trkpt>
      <trkpt lat="43.41557" lon="-0.37933">
        <ele>228.93</ele>
        <time>2012-10-02T15:02:05Z</time>
      </trkpt>
      <trkpt lat="43.41549" lon="-0.37948">
        <ele>227.97</ele>
        <time>2012-10-02T15:02:16Z</time>
      </trkpt>
      <trkpt lat="43.41544" lon="-0.37962">
        <ele>227.01</ele>
        <time>2012-10-02T15:02:27Z</time>
      </trkpt>
      <trkpt lat="43.41536" lon="-0.37977">
        <ele>226.05</ele>
        <time>2012-10-02T15:02:40Z</time>
      </trkpt>
      <trkpt lat="43.41531" lon="-0.3799">
        <ele>224.61</ele>
        <time>2012-10-02T15:02:52Z</time>
      </trkpt>
      <trkpt lat="43.41525" lon="-0.38002">
        <ele>223.16</ele>
        <time>2012-10-02T15:03:07Z</time>
      </trkpt>
      <trkpt lat="43.41515" lon="-0.38012">
        <ele>221.72</ele>
        <time>2012-10-02T15:03:17Z</time>
      </trkpt>
      <trkpt lat="43.41504" lon="-0.38012">
        <ele>221.72</ele>
        <time>2012-10-02T15:04:47Z</time>
      </trkpt>
      <trkpt lat="43.4149" lon="-0.3801">
        <ele>220.76</ele>
        <time>2012-10-02T15:04:58Z</time>
      </trkpt>
      <trkpt lat="43.41479" lon="-0.38016">
        <ele>219.8</ele>
        <time>2012-10-02T15:05:07Z</time>
      </trkpt>
      <trkpt lat="43.4147" lon="-0.3802">
        <ele>219.32</ele>
        <time>2012-10-02T15:05:16Z</time>
      </trkpt>
      <trkpt lat="43.41461" lon="-0.38023">
        <ele>218.84</ele>
        <time>2012-10-02T15:05:26Z</time>
      </trkpt>
      <trkpt lat="43.41454" lon="-0.38031">
        <ele>217.88</ele>
        <time>2012-10-02T15:05:36Z</time>
      </trkpt>
      <trkpt lat="43.41447" lon="-0.3804">
        <ele>216.43</ele>
        <time>2012-10-02T15:05:47Z</time>
      </trkpt>
      <trkpt lat="43.41439" lon="-0.38049">
        <ele>215.47</ele>
        <time>2012-10-02T15:05:58Z</time>
      </trkpt>
      <trkpt lat="43.41433" lon="-0.38056">
        <ele>214.51</ele>
        <time>2012-10-02T15:06:09Z</time>
      </trkpt>
      <trkpt lat="43.41427" lon="-0.38066">
        <ele>214.99</ele>
        <time>2012-10-02T15:06:20Z</time>
      </trkpt>
      <trkpt lat="43.41419" lon="-0.38075">
        <ele>217.4</ele>
        <time>2012-10-02T15:06:34Z</time>
      </trkpt>
      <trkpt lat="43.41411" lon="-0.38075">
        <ele>219.32</ele>
        <time>2012-10-02T15:06:48Z</time>
      </trkpt>
      <trkpt lat="43.41404" lon="-0.38088">
        <ele>222.2</ele>
        <time>2012-10-02T15:07:03Z</time>
      </trkpt>
      <trkpt lat="43.41395" lon="-0.38095">
        <ele>224.12</ele>
        <time>2012-10-02T15:07:18Z</time>
      </trkpt>
      <trkpt lat="43.41386" lon="-0.38105">
        <ele>226.53</ele>
        <time>2012-10-02T15:07:32Z</time>
      </trkpt>
      <trkpt lat="43.41376" lon="-0.38112">
        <ele>227.97</ele>
        <time>2012-10-02T15:07:46Z</time>
      </trkpt>
      <trkpt lat="43.41368" lon="-0.38122">
        <ele>230.37</ele>
        <time>2012-10-02T15:08:02Z</time>
      </trkpt>
      <trkpt lat="43.41359" lon="-0.38131">
        <ele>232.78</ele>
        <time>2012-10-02T15:08:20Z</time>
      </trkpt>
      <trkpt lat="43.41351" lon="-0.3814">
        <ele>235.66</ele>
        <time>2012-10-02T15:08:38Z</time>
      </trkpt>
      <trkpt lat="43.41342" lon="-0.38147">
        <ele>237.58</ele>
        <time>2012-10-02T15:08:51Z</time>
      </trkpt>
      <trkpt lat="43.41336" lon="-0.38158">
        <ele>238.06</ele>
        <time>2012-10-02T15:09:04Z</time>
      </trkpt>
      <trkpt lat="43.41322" lon="-0.38171">
        <ele>239.02</ele>
        <time>2012-10-02T15:09:18Z</time>
      </trkpt>
      <trkpt lat="43.41315" lon="-0.3818">
        <ele>240.47</ele>
        <time>2012-10-02T15:09:32Z</time>
      </trkpt>
      <trkpt lat="43.41304" lon="-0.38191">
        <ele>241.91</ele>
        <time>2012-10-02T15:09:47Z</time>
      </trkpt>
      <trkpt lat="43.41295" lon="-0.382">
        <ele>242.87</ele>
        <time>2012-10-02T15:10:03Z</time>
      </trkpt>
      <trkpt lat="43.41283" lon="-0.38207">
        <ele>244.31</ele>
        <time>2012-10-02T15:10:14Z</time>
      </trkpt>
      <trkpt lat="43.4127" lon="-0.38217">
        <ele>245.75</ele>
        <time>2012-10-02T15:10:28Z</time>
      </trkpt>
      <trkpt lat="43.41261" lon="-0.38216">
        <ele>248.64</ele>
        <time>2012-10-02T15:10:42Z</time>
      </trkpt>
      <trkpt lat="43.41255" lon="-0.38225">
        <ele>248.64</ele>
        <time>2012-10-02T15:11:34Z</time>
      </trkpt>
      <trkpt lat="43.4125" lon="-0.3824">
        <ele>249.12</ele>
        <time>2012-10-02T15:11:45Z</time>
      </trkpt>
      <trkpt lat="43.41245" lon="-0.38256">
        <ele>249.12</ele>
        <time>2012-10-02T15:11:57Z</time>
      </trkpt>
      <trkpt lat="43.41238" lon="-0.3827">
        <ele>249.12</ele>
        <time>2012-10-02T15:12:08Z</time>
      </trkpt>
      <trkpt lat="43.4123" lon="-0.38283">
        <ele>249.12</ele>
        <time>2012-10-02T15:12:19Z</time>
      </trkpt>
      <trkpt lat="43.41223" lon="-0.38297">
        <ele>249.6</ele>
        <time>2012-10-02T15:12:30Z</time>
      </trkpt>
      <trkpt lat="43.41215" lon="-0.38309">
        <ele>250.08</ele>
        <time>2012-10-02T15:12:42Z</time>
      </trkpt>
      <trkpt lat="43.41207" lon="-0.38314">
        <ele>251.04</ele>
        <time>2012-10-02T15:12:53Z</time>
      </trkpt>
      <trkpt lat="43.41199" lon="-0.38322">
        <ele>251.52</ele>
        <time>2012-10-02T15:13:04Z</time>
      </trkpt>
      <trkpt lat="43.41192" lon="-0.38326">
        <ele>251.04</ele>
        <time>2012-10-02T15:13:15Z</time>
      </trkpt>
      <trkpt lat="43.41182" lon="-0.38329">
        <ele>250.08</ele>
        <time>2012-10-02T15:13:28Z</time>
      </trkpt>
      <trkpt lat="43.41172" lon="-0.38333">
        <ele>249.12</ele>
        <time>2012-10-02T15:13:40Z</time>
      </trkpt>
      <trkpt lat="43.41163" lon="-0.38325">
        <ele>248.64</ele>
        <time>2012-10-02T15:13:54Z</time>
      </trkpt>
      <trkpt lat="43.41157" lon="-0.38315">
        <ele>249.12</ele>
        <time>2012-10-02T15:14:14Z</time>
      </trkpt>
      <trkpt lat="43.41157" lon="-0.38316">
        <ele>248.64</ele>
        <time>2012-10-02T15:17:11Z</time>
      </trkpt>
      <trkpt lat="43.41155" lon="-0.38298">
        <ele>249.12</ele>
        <time>2012-10-02T15:17:24Z</time>
      </trkpt>
      <trkpt lat="43.41156" lon="-0.38282">
        <ele>248.64</ele>
        <time>2012-10-02T15:17:36Z</time>
      </trkpt>
      <trkpt lat="43.41158" lon="-0.38266">
        <ele>249.6</ele>
        <time>2012-10-02T15:17:49Z</time>
      </trkpt>
      <trkpt lat="43.41159" lon="-0.3825">
        <ele>250.08</ele>
        <time>2012-10-02T15:18:00Z</time>
      </trkpt>
      <trkpt lat="43.41161" lon="-0.38236">
        <ele>250.56</ele>
        <time>2012-10-02T15:18:11Z</time>
      </trkpt>
      <trkpt lat="43.41162" lon="-0.3822">
        <ele>251.52</ele>
        <time>2012-10-02T15:18:23Z</time>
      </trkpt>
      <trkpt lat="43.41164" lon="-0.38206">
        <ele>252</ele>
        <time>2012-10-02T15:18:35Z</time>
      </trkpt>
      <trkpt lat="43.41167" lon="-0.38193">
        <ele>252.48</ele>
        <time>2012-10-02T15:18:47Z</time>
      </trkpt>
      <trkpt lat="43.41172" lon="-0.3818">
        <ele>253.44</ele>
        <time>2012-10-02T15:18:57Z</time>
      </trkpt>
      <trkpt lat="43.41178" lon="-0.38165">
        <ele>254.41</ele>
        <time>2012-10-02T15:19:10Z</time>
      </trkpt>
      <trkpt lat="43.41185" lon="-0.38153">
        <ele>255.85</ele>
        <time>2012-10-02T15:19:23Z</time>
      </trkpt>
      <trkpt lat="43.41187" lon="-0.38138">
        <ele>256.81</ele>
        <time>2012-10-02T15:19:37Z</time>
      </trkpt>
      <trkpt lat="43.4118" lon="-0.38118">
        <ele>255.85</ele>
        <time>2012-10-02T15:19:50Z</time>
      </trkpt>
      <trkpt lat="43.41171" lon="-0.38103">
        <ele>254.41</ele>
        <time>2012-10-02T15:20:02Z</time>
      </trkpt>
      <trkpt lat="43.41161" lon="-0.38093">
        <ele>252</ele>
        <time>2012-10-02T15:20:14Z</time>
      </trkpt>
      <trkpt lat="43.41151" lon="-0.38088">
        <ele>250.08</ele>
        <time>2012-10-02T15:20:26Z</time>
      </trkpt>
      <trkpt lat="43.4114" lon="-0.38086">
        <ele>248.16</ele>
        <time>2012-10-02T15:20:39Z</time>
      </trkpt>
      <trkpt lat="43.41129" lon="-0.38083">
        <ele>245.75</ele>
        <time>2012-10-02T15:20:50Z</time>
      </trkpt>
      <trkpt lat="43.41119" lon="-0.38081">
        <ele>244.31</ele>
        <time>2012-10-02T15:21:02Z</time>
      </trkpt>
      <trkpt lat="43.41108" lon="-0.38077">
        <ele>243.83</ele>
        <time>2012-10-02T15:21:12Z</time>
      </trkpt>
      <trkpt lat="43.41096" lon="-0.38075">
        <ele>242.87</ele>
        <time>2012-10-02T15:21:23Z</time>
      </trkpt>
      <trkpt lat="43.41082" lon="-0.38066">
        <ele>241.91</ele>
        <time>2012-10-02T15:21:35Z</time>
      </trkpt>
      <trkpt lat="43.41071" lon="-0.38061">
        <ele>241.43</ele>
        <time>2012-10-02T15:21:45Z</time>
      </trkpt>
      <trkpt lat="43.41061" lon="-0.38053">
        <ele>240.95</ele>
        <time>2012-10-02T15:21:55Z</time>
      </trkpt>
      <trkpt lat="43.41051" lon="-0.38049">
        <ele>240.95</ele>
        <time>2012-10-02T15:22:06Z</time>
      </trkpt>
      <trkpt lat="43.41042" lon="-0.38043">
        <ele>240.95</ele>
        <time>2012-10-02T15:22:17Z</time>
      </trkpt>
      <trkpt lat="43.41029" lon="-0.38035">
        <ele>239.99</ele>
        <time>2012-10-02T15:22:29Z</time>
      </trkpt>
      <trkpt lat="43.41018" lon="-0.38031">
        <ele>239.51</ele>
        <time>2012-10-02T15:22:40Z</time>
      </trkpt>
      <trkpt lat="43.41007" lon="-0.3803">
        <ele>238.54</ele>
        <time>2012-10-02T15:22:51Z</time>
      </trkpt>
      <trkpt lat="43.40995" lon="-0.38031">
        <ele>237.1</ele>
        <time>2012-10-02T15:23:01Z</time>
      </trkpt>
      <trkpt lat="43.40985" lon="-0.38028">
        <ele>235.66</ele>
        <time>2012-10-02T15:23:12Z</time>
      </trkpt>
      <trkpt lat="43.40978" lon="-0.38022">
        <ele>233.26</ele>
        <time>2012-10-02T15:23:27Z</time>
      </trkpt>
      <trkpt lat="43.40968" lon="-0.3801">
        <ele>231.33</ele>
        <time>2012-10-02T15:23:40Z</time>
      </trkpt>
      <trkpt lat="43.40958" lon="-0.38009">
        <ele>228.93</ele>
        <time>2012-10-02T15:23:50Z</time>
      </trkpt>
      <trkpt lat="43.40946" lon="-0.38016">
        <ele>227.01</ele>
        <time>2012-10-02T15:24:02Z</time>
      </trkpt>
      <trkpt lat="43.40936" lon="-0.38022">
        <ele>225.57</ele>
        <time>2012-10-02T15:24:13Z</time>
      </trkpt>
      <trkpt lat="43.4093" lon="-0.38033">
        <ele>224.12</ele>
        <time>2012-10-02T15:24:24Z</time>
      </trkpt>
      <trkpt lat="43.40922" lon="-0.38048">
        <ele>223.64</ele>
        <time>2012-10-02T15:24:36Z</time>
      </trkpt>
      <trkpt lat="43.40915" lon="-0.38066">
        <ele>222.2</ele>
        <time>2012-10-02T15:24:49Z</time>
      </trkpt>
      <trkpt lat="43.40907" lon="-0.38077">
        <ele>221.72</ele>
        <time>2012-10-02T15:25:01Z</time>
      </trkpt>
      <trkpt lat="43.40896" lon="-0.38075">
        <ele>221.72</ele>
        <time>2012-10-02T15:25:14Z</time>
      </trkpt>
      <trkpt lat="43.40885" lon="-0.38076">
        <ele>222.2</ele>
        <time>2012-10-02T15:25:25Z</time>
      </trkpt>
      <trkpt lat="43.40875" lon="-0.38075">
        <ele>222.68</ele>
        <time>2012-10-02T15:25:39Z</time>
      </trkpt>
      <trkpt lat="43.40864" lon="-0.38077">
        <ele>223.64</ele>
        <time>2012-10-02T15:25:49Z</time>
      </trkpt>
      <trkpt lat="43.40854" lon="-0.38077">
        <ele>224.12</ele>
        <time>2012-10-02T15:25:59Z</time>
      </trkpt>
      <trkpt lat="43.40843" lon="-0.38074">
        <ele>225.09</ele>
        <time>2012-10-02T15:26:11Z</time>
      </trkpt>
      <trkpt lat="43.40834" lon="-0.38066">
        <ele>226.53</ele>
        <time>2012-10-02T15:26:23Z</time>
      </trkpt>
      <trkpt lat="43.40824" lon="-0.3806">
        <ele>227.49</ele>
        <time>2012-10-02T15:26:33Z</time>
      </trkpt>
      <trkpt lat="43.40815" lon="-0.38056">
        <ele>227.97</ele>
        <time>2012-10-02T15:26:43Z</time>
      </trkpt>
      <trkpt lat="43.40804" lon="-0.38049">
        <ele>228.93</ele>
        <time>2012-10-02T15:26:56Z</time>
      </trkpt>
      <trkpt lat="43.40795" lon="-0.38041">
        <ele>229.89</ele>
        <time>2012-10-02T15:27:06Z</time>
      </trkpt>
      <trkpt lat="43.40785" lon="-0.38035">
        <ele>230.37</ele>
        <time>2012-10-02T15:27:17Z</time>
      </trkpt>
      <trkpt lat="43.40775" lon="-0.38028">
        <ele>231.33</ele>
        <time>2012-10-02T15:27:28Z</time>
      </trkpt>
      <trkpt lat="43.40765" lon="-0.38024">
        <ele>232.78</ele>
        <time>2012-10-02T15:27:41Z</time>
      </trkpt>
      <trkpt lat="43.40757" lon="-0.38029">
        <ele>233.26</ele>
        <time>2012-10-02T15:27:52Z</time>
      </trkpt>
      <trkpt lat="43.40754" lon="-0.38045">
        <ele>232.78</ele>
        <time>2012-10-02T15:28:03Z</time>
      </trkpt>
      <trkpt lat="43.40748" lon="-0.38057">
        <ele>232.3</ele>
        <time>2012-10-02T15:28:12Z</time>
      </trkpt>
      <trkpt lat="43.40743" lon="-0.38069">
        <ele>231.33</ele>
        <time>2012-10-02T15:28:21Z</time>
      </trkpt>
      <trkpt lat="43.40739" lon="-0.38082">
        <ele>230.85</ele>
        <time>2012-10-02T15:28:30Z</time>
      </trkpt>
      <trkpt lat="43.40736" lon="-0.38095">
        <ele>229.89</ele>
        <time>2012-10-02T15:28:39Z</time>
      </trkpt>
      <trkpt lat="43.40733" lon="-0.38108">
        <ele>228.93</ele>
        <time>2012-10-02T15:28:48Z</time>
      </trkpt>
      <trkpt lat="43.40729" lon="-0.38121">
        <ele>227.97</ele>
        <time>2012-10-02T15:28:57Z</time>
      </trkpt>
      <trkpt lat="43.40726" lon="-0.38134">
        <ele>227.49</ele>
        <time>2012-10-02T15:29:06Z</time>
      </trkpt>
      <trkpt lat="43.40723" lon="-0.38147">
        <ele>226.53</ele>
        <time>2012-10-02T15:29:16Z</time>
      </trkpt>
      <trkpt lat="43.4072" lon="-0.38159">
        <ele>225.57</ele>
        <time>2012-10-02T15:29:25Z</time>
      </trkpt>
      <trkpt lat="43.40716" lon="-0.38173">
        <ele>224.12</ele>
        <time>2012-10-02T15:29:33Z</time>
      </trkpt>
      <trkpt lat="43.40713" lon="-0.38185">
        <ele>224.12</ele>
        <time>2012-10-02T15:29:43Z</time>
      </trkpt>
      <trkpt lat="43.40711" lon="-0.38198">
        <ele>222.68</ele>
        <time>2012-10-02T15:29:52Z</time>
      </trkpt>
      <trkpt lat="43.40707" lon="-0.38211">
        <ele>222.2</ele>
        <time>2012-10-02T15:30:02Z</time>
      </trkpt>
      <trkpt lat="43.40704" lon="-0.38224">
        <ele>221.24</ele>
        <time>2012-10-02T15:30:12Z</time>
      </trkpt>
      <trkpt lat="43.40701" lon="-0.38238">
        <ele>219.8</ele>
        <time>2012-10-02T15:30:22Z</time>
      </trkpt>
      <trkpt lat="43.40697" lon="-0.3825">
        <ele>219.32</ele>
        <time>2012-10-02T15:30:31Z</time>
      </trkpt>
      <trkpt lat="43.40692" lon="-0.38263">
        <ele>218.84</ele>
        <time>2012-10-02T15:30:40Z</time>
      </trkpt>
      <trkpt lat="43.40689" lon="-0.38275">
        <ele>219.32</ele>
        <time>2012-10-02T15:30:49Z</time>
      </trkpt>
      <trkpt lat="43.40684" lon="-0.38283">
        <ele>220.28</ele>
        <time>2012-10-02T15:31:08Z</time>
      </trkpt>
      <trkpt lat="43.40675" lon="-0.38289">
        <ele>221.24</ele>
        <time>2012-10-02T15:31:17Z</time>
      </trkpt>
      <trkpt lat="43.40665" lon="-0.38291">
        <ele>221.72</ele>
        <time>2012-10-02T15:31:27Z</time>
      </trkpt>
      <trkpt lat="43.40656" lon="-0.38295">
        <ele>222.68</ele>
        <time>2012-10-02T15:31:36Z</time>
      </trkpt>
      <trkpt lat="43.40645" lon="-0.38299">
        <ele>223.16</ele>
        <time>2012-10-02T15:31:46Z</time>
      </trkpt>
      <trkpt lat="43.40635" lon="-0.383">
        <ele>223.64</ele>
        <time>2012-10-02T15:31:55Z</time>
      </trkpt>
      <trkpt lat="43.40625" lon="-0.38301">
        <ele>224.61</ele>
        <time>2012-10-02T15:32:04Z</time>
      </trkpt>
      <trkpt lat="43.40615" lon="-0.38303">
        <ele>225.57</ele>
        <time>2012-10-02T15:32:13Z</time>
      </trkpt>
      <trkpt lat="43.40606" lon="-0.38305">
        <ele>226.05</ele>
        <time>2012-10-02T15:32:21Z</time>
      </trkpt>
      <trkpt lat="43.40598" lon="-0.38307">
        <ele>227.01</ele>
        <time>2012-10-02T15:32:29Z</time>
      </trkpt>
      <trkpt lat="43.4059" lon="-0.38317">
        <ele>227.97</ele>
        <time>2012-10-02T15:32:38Z</time>
      </trkpt>
      <trkpt lat="43.40587" lon="-0.3833">
        <ele>228.45</ele>
        <time>2012-10-02T15:32:46Z</time>
      </trkpt>
      <trkpt lat="43.40587" lon="-0.38345">
        <ele>228.93</ele>
        <time>2012-10-02T15:32:54Z</time>
      </trkpt>
      <trkpt lat="43.40588" lon="-0.38358">
        <ele>228.93</ele>
        <time>2012-10-02T15:33:02Z</time>
      </trkpt>
      <trkpt lat="43.40589" lon="-0.38372">
        <ele>229.41</ele>
        <time>2012-10-02T15:33:10Z</time>
      </trkpt>
      <trkpt lat="43.40589" lon="-0.38385">
        <ele>228.93</ele>
        <time>2012-10-02T15:33:18Z</time>
      </trkpt>
      <trkpt lat="43.40589" lon="-0.38398">
        <ele>229.41</ele>
        <time>2012-10-02T15:33:26Z</time>
      </trkpt>
      <trkpt lat="43.40586" lon="-0.3841">
        <ele>229.41</ele>
        <time>2012-10-02T15:33:34Z</time>
      </trkpt>
      <trkpt lat="43.40582" lon="-0.38422">
        <ele>228.93</ele>
        <time>2012-10-02T15:33:42Z</time>
      </trkpt>
      <trkpt lat="43.40577" lon="-0.38432">
        <ele>229.41</ele>
        <time>2012-10-02T15:33:50Z</time>
      </trkpt>
      <trkpt lat="43.40572" lon="-0.38445">
        <ele>229.41</ele>
        <time>2012-10-02T15:33:59Z</time>
      </trkpt>
      <trkpt lat="43.40567" lon="-0.38456">
        <ele>228.93</ele>
        <time>2012-10-02T15:34:07Z</time>
      </trkpt>
      <trkpt lat="43.40562" lon="-0.38466">
        <ele>228.45</ele>
        <time>2012-10-02T15:34:15Z</time>
      </trkpt>
      <trkpt lat="43.40556" lon="-0.38478">
        <ele>227.97</ele>
        <time>2012-10-02T15:34:23Z</time>
      </trkpt>
      <trkpt lat="43.40551" lon="-0.38488">
        <ele>227.01</ele>
        <time>2012-10-02T15:34:31Z</time>
      </trkpt>
      <trkpt lat="43.40546" lon="-0.38498">
        <ele>226.53</ele>
        <time>2012-10-02T15:34:39Z</time>
      </trkpt>
      <trkpt lat="43.40543" lon="-0.38506">
        <ele>225.57</ele>
        <time>2012-10-02T15:35:06Z</time>
      </trkpt>
      <trkpt lat="43.40537" lon="-0.3852">
        <ele>226.05</ele>
        <time>2012-10-02T15:35:16Z</time>
      </trkpt>
      <trkpt lat="43.40533" lon="-0.38532">
        <ele>226.53</ele>
        <time>2012-10-02T15:35:25Z</time>
      </trkpt>
      <trkpt lat="43.40529" lon="-0.38545">
        <ele>225.57</ele>
        <time>2012-10-02T15:35:34Z</time>
      </trkpt>
      <trkpt lat="43.40525" lon="-0.38558">
        <ele>225.57</ele>
        <time>2012-10-02T15:35:42Z</time>
      </trkpt>
      <trkpt lat="43.40522" lon="-0.38571">
        <ele>225.09</ele>
        <time>2012-10-02T15:35:51Z</time>
      </trkpt>
      <trkpt lat="43.40516" lon="-0.38583">
        <ele>224.61</ele>
        <time>2012-10-02T15:36:00Z</time>
      </trkpt>
      <trkpt lat="43.40511" lon="-0.38594">
        <ele>224.61</ele>
        <time>2012-10-02T15:36:08Z</time>
      </trkpt>
      <trkpt lat="43.40506" lon="-0.38605">
        <ele>224.61</ele>
        <time>2012-10-02T15:36:16Z</time>
      </trkpt>
      <trkpt lat="43.405" lon="-0.38616">
        <ele>224.61</ele>
        <time>2012-10-02T15:36:24Z</time>
      </trkpt>
      <trkpt lat="43.40496" lon="-0.38629">
        <ele>224.61</ele>
        <time>2012-10-02T15:36:33Z</time>
      </trkpt>
      <trkpt lat="43.4049" lon="-0.3864">
        <ele>224.12</ele>
        <time>2012-10-02T15:36:41Z</time>
      </trkpt>
      <trkpt lat="43.40486" lon="-0.38653">
        <ele>224.12</ele>
        <time>2012-10-02T15:36:50Z</time>
      </trkpt>
      <trkpt lat="43.4048" lon="-0.38665">
        <ele>224.12</ele>
        <time>2012-10-02T15:36:59Z</time>
      </trkpt>
      <trkpt lat="43.40474" lon="-0.38676">
        <ele>224.61</ele>
        <time>2012-10-02T15:37:07Z</time>
      </trkpt>
      <trkpt lat="43.40469" lon="-0.38686">
        <ele>224.12</ele>
        <time>2012-10-02T15:37:15Z</time>
      </trkpt>
      <trkpt lat="43.40463" lon="-0.38696">
        <ele>225.09</ele>
        <time>2012-10-02T15:37:24Z</time>
      </trkpt>
      <trkpt lat="43.40455" lon="-0.38704">
        <ele>224.12</ele>
        <time>2012-10-02T15:37:32Z</time>
      </trkpt>
      <trkpt lat="43.40447" lon="-0.38714">
        <ele>224.61</ele>
        <time>2012-10-02T15:37:40Z</time>
      </trkpt>
      <trkpt lat="43.4044" lon="-0.38722">
        <ele>224.61</ele>
        <time>2012-10-02T15:37:48Z</time>
      </trkpt>
      <trkpt lat="43.40434" lon="-0.38731">
        <ele>225.09</ele>
        <time>2012-10-02T15:37:56Z</time>
      </trkpt>
      <trkpt lat="43.40437" lon="-0.38745">
        <ele>225.57</ele>
        <time>2012-10-02T15:38:05Z</time>
      </trkpt>
      <trkpt lat="43.40445" lon="-0.38754">
        <ele>225.09</ele>
        <time>2012-10-02T15:38:13Z</time>
      </trkpt>
      <trkpt lat="43.4045" lon="-0.38765">
        <ele>224.61</ele>
        <time>2012-10-02T15:38:21Z</time>
      </trkpt>
      <trkpt lat="43.40456" lon="-0.38775">
        <ele>224.61</ele>
        <time>2012-10-02T15:38:29Z</time>
      </trkpt>
      <trkpt lat="43.40464" lon="-0.38784">
        <ele>223.64</ele>
        <time>2012-10-02T15:38:37Z</time>
      </trkpt>
      <trkpt lat="43.40474" lon="-0.38791">
        <ele>223.16</ele>
        <time>2012-10-02T15:38:45Z</time>
      </trkpt>
      <trkpt lat="43.40483" lon="-0.38797">
        <ele>222.2</ele>
        <time>2012-10-02T15:38:53Z</time>
      </trkpt>
      <trkpt lat="43.40492" lon="-0.38804">
        <ele>221.24</ele>
        <time>2012-10-02T15:39:02Z</time>
      </trkpt>
      <trkpt lat="43.405" lon="-0.3881">
        <ele>220.76</ele>
        <time>2012-10-02T15:39:10Z</time>
      </trkpt>
      <trkpt lat="43.40508" lon="-0.38818">
        <ele>220.28</ele>
        <time>2012-10-02T15:39:18Z</time>
      </trkpt>
      <trkpt lat="43.40517" lon="-0.38824">
        <ele>219.32</ele>
        <time>2012-10-02T15:39:26Z</time>
      </trkpt>
      <trkpt lat="43.40527" lon="-0.3883">
        <ele>218.84</ele>
        <time>2012-10-02T15:39:35Z</time>
      </trkpt>
      <trkpt lat="43.40533" lon="-0.38839">
        <ele>218.36</ele>
        <time>2012-10-02T15:39:43Z</time>
      </trkpt>
      <trkpt lat="43.4054" lon="-0.38849">
        <ele>217.4</ele>
        <time>2012-10-02T15:39:51Z</time>
      </trkpt>
      <trkpt lat="43.40546" lon="-0.38858">
        <ele>216.91</ele>
        <time>2012-10-02T15:39:59Z</time>
      </trkpt>
      <trkpt lat="43.40551" lon="-0.38869">
        <ele>215.95</ele>
        <time>2012-10-02T15:40:07Z</time>
      </trkpt>
      <trkpt lat="43.40556" lon="-0.38881">
        <ele>214.99</ele>
        <time>2012-10-02T15:40:15Z</time>
      </trkpt>
      <trkpt lat="43.40559" lon="-0.38894">
        <ele>214.51</ele>
        <time>2012-10-02T15:40:24Z</time>
      </trkpt>
      <trkpt lat="43.40563" lon="-0.38907">
        <ele>214.03</ele>
        <time>2012-10-02T15:40:32Z</time>
      </trkpt>
      <trkpt lat="43.40565" lon="-0.38921">
        <ele>213.55</ele>
        <time>2012-10-02T15:40:40Z</time>
      </trkpt>
      <trkpt lat="43.40568" lon="-0.38934">
        <ele>213.07</ele>
        <time>2012-10-02T15:40:48Z</time>
      </trkpt>
      <trkpt lat="43.4057" lon="-0.38947">
        <ele>212.11</ele>
        <time>2012-10-02T15:40:57Z</time>
      </trkpt>
      <trkpt lat="43.40573" lon="-0.38961">
        <ele>212.11</ele>
        <time>2012-10-02T15:41:05Z</time>
      </trkpt>
      <trkpt lat="43.40575" lon="-0.38974">
        <ele>211.63</ele>
        <time>2012-10-02T15:41:13Z</time>
      </trkpt>
      <trkpt lat="43.40578" lon="-0.38986">
        <ele>210.19</ele>
        <time>2012-10-02T15:41:21Z</time>
      </trkpt>
      <trkpt lat="43.40581" lon="-0.38999">
        <ele>210.19</ele>
        <time>2012-10-02T15:41:29Z</time>
      </trkpt>
      <trkpt lat="43.40584" lon="-0.39012">
        <ele>209.7</ele>
        <time>2012-10-02T15:41:37Z</time>
      </trkpt>
      <trkpt lat="43.40588" lon="-0.39024">
        <ele>209.22</ele>
        <time>2012-10-02T15:41:45Z</time>
      </trkpt>
      <trkpt lat="43.40591" lon="-0.39037">
        <ele>209.22</ele>
        <time>2012-10-02T15:41:53Z</time>
      </trkpt>
      <trkpt lat="43.40595" lon="-0.39049">
        <ele>208.74</ele>
        <time>2012-10-02T15:42:01Z</time>
      </trkpt>
      <trkpt lat="43.40599" lon="-0.39061">
        <ele>208.26</ele>
        <time>2012-10-02T15:42:09Z</time>
      </trkpt>
      <trkpt lat="43.40602" lon="-0.39074">
        <ele>207.3</ele>
        <time>2012-10-02T15:42:17Z</time>
      </trkpt>
      <trkpt lat="43.40605" lon="-0.39087">
        <ele>206.34</ele>
        <time>2012-10-02T15:42:26Z</time>
      </trkpt>
      <trkpt lat="43.40607" lon="-0.391">
        <ele>205.86</ele>
        <time>2012-10-02T15:42:34Z</time>
      </trkpt>
      <trkpt lat="43.40611" lon="-0.39113">
        <ele>204.9</ele>
        <time>2012-10-02T15:42:42Z</time>
      </trkpt>
      <trkpt lat="43.40614" lon="-0.39125">
        <ele>203.94</ele>
        <time>2012-10-02T15:42:50Z</time>
      </trkpt>
      <trkpt lat="43.40617" lon="-0.39138">
        <ele>202.98</ele>
        <time>2012-10-02T15:42:59Z</time>
      </trkpt>
      <trkpt lat="43.4062" lon="-0.39151">
        <ele>202.49</ele>
        <time>2012-10-02T15:43:07Z</time>
      </trkpt>
      <trkpt lat="43.40624" lon="-0.39164">
        <ele>201.53</ele>
        <time>2012-10-02T15:43:15Z</time>
      </trkpt>
      <trkpt lat="43.40628" lon="-0.39175">
        <ele>201.05</ele>
        <time>2012-10-02T15:43:23Z</time>
      </trkpt>
      <trkpt lat="43.40632" lon="-0.39188">
        <ele>200.57</ele>
        <time>2012-10-02T15:43:31Z</time>
      </trkpt>
      <trkpt lat="43.40636" lon="-0.39201">
        <ele>199.61</ele>
        <time>2012-10-02T15:43:39Z</time>
      </trkpt>
      <trkpt lat="43.40639" lon="-0.39213">
        <ele>199.13</ele>
        <time>2012-10-02T15:43:47Z</time>
      </trkpt>
      <trkpt lat="43.40642" lon="-0.39226">
        <ele>197.69</ele>
        <time>2012-10-02T15:43:55Z</time>
      </trkpt>
      <trkpt lat="43.40646" lon="-0.39239">
        <ele>196.73</ele>
        <time>2012-10-02T15:44:03Z</time>
      </trkpt>
      <trkpt lat="43.4065" lon="-0.3925">
        <ele>196.25</ele>
        <time>2012-10-02T15:44:11Z</time>
      </trkpt>
      <trkpt lat="43.40652" lon="-0.39264">
        <ele>196.25</ele>
        <time>2012-10-02T15:44:19Z</time>
      </trkpt>
      <trkpt lat="43.40654" lon="-0.39277">
        <ele>195.28</ele>
        <time>2012-10-02T15:44:27Z</time>
      </trkpt>
      <trkpt lat="43.40658" lon="-0.3929">
        <ele>194.32</ele>
        <time>2012-10-02T15:44:35Z</time>
      </trkpt>
      <trkpt lat="43.4066" lon="-0.39303">
        <ele>193.36</ele>
        <time>2012-10-02T15:44:43Z</time>
      </trkpt>
      <trkpt lat="43.40663" lon="-0.39315">
        <ele>192.4</ele>
        <time>2012-10-02T15:44:51Z</time>
      </trkpt>
      <trkpt lat="43.40668" lon="-0.39328">
        <ele>191.44</ele>
        <time>2012-10-02T15:44:59Z</time>
      </trkpt>
      <trkpt lat="43.40671" lon="-0.3934">
        <ele>190.96</ele>
        <time>2012-10-02T15:45:07Z</time>
      </trkpt>
      <trkpt lat="43.40675" lon="-0.39352">
        <ele>190.96</ele>
        <time>2012-10-02T15:45:15Z</time>
      </trkpt>
      <trkpt lat="43.40679" lon="-0.39364">
        <ele>190.48</ele>
        <time>2012-10-02T15:45:23Z</time>
      </trkpt>
      <trkpt lat="43.40683" lon="-0.39376">
        <ele>190</ele>
        <time>2012-10-02T15:45:31Z</time>
      </trkpt>
      <trkpt lat="43.40685" lon="-0.39389">
        <ele>189.52</ele>
        <time>2012-10-02T15:45:39Z</time>
      </trkpt>
      <trkpt lat="43.40688" lon="-0.39401">
        <ele>188.56</ele>
        <time>2012-10-02T15:45:47Z</time>
      </trkpt>
      <trkpt lat="43.40691" lon="-0.39414">
        <ele>188.08</ele>
        <time>2012-10-02T15:45:55Z</time>
      </trkpt>
      <trkpt lat="43.40693" lon="-0.39426">
        <ele>187.59</ele>
        <time>2012-10-02T15:46:03Z</time>
      </trkpt>
      <trkpt lat="43.40694" lon="-0.3944">
        <ele>187.11</ele>
        <time>2012-10-02T15:46:12Z</time>
      </trkpt>
      <trkpt lat="43.40695" lon="-0.39452">
        <ele>186.15</ele>
        <time>2012-10-02T15:46:20Z</time>
      </trkpt>
      <trkpt lat="43.40695" lon="-0.39465">
        <ele>186.15</ele>
        <time>2012-10-02T15:46:28Z</time>
      </trkpt>
      <trkpt lat="43.40695" lon="-0.39479">
        <ele>186.15</ele>
        <time>2012-10-02T15:46:36Z</time>
      </trkpt>
      <trkpt lat="43.40696" lon="-0.39492">
        <ele>185.19</ele>
        <time>2012-10-02T15:46:44Z</time>
      </trkpt>
      <trkpt lat="43.40696" lon="-0.39507">
        <ele>185.19</ele>
        <time>2012-10-02T15:46:52Z</time>
      </trkpt>
      <trkpt lat="43.40697" lon="-0.3952">
        <ele>185.19</ele>
        <time>2012-10-02T15:47:00Z</time>
      </trkpt>
      <trkpt lat="43.407" lon="-0.39533">
        <ele>184.71</ele>
        <time>2012-10-02T15:47:08Z</time>
      </trkpt>
      <trkpt lat="43.40707" lon="-0.39544">
        <ele>184.23</ele>
        <time>2012-10-02T15:47:16Z</time>
      </trkpt>
      <trkpt lat="43.40714" lon="-0.39554">
        <ele>184.23</ele>
        <time>2012-10-02T15:47:24Z</time>
      </trkpt>
      <trkpt lat="43.40722" lon="-0.39563">
        <ele>183.75</ele>
        <time>2012-10-02T15:47:32Z</time>
      </trkpt>
      <trkpt lat="43.40729" lon="-0.39572">
        <ele>184.23</ele>
        <time>2012-10-02T15:47:40Z</time>
      </trkpt>
      <trkpt lat="43.40736" lon="-0.39583">
        <ele>184.23</ele>
        <time>2012-10-02T15:47:48Z</time>
      </trkpt>
      <trkpt lat="43.40742" lon="-0.39593">
        <ele>184.23</ele>
        <time>2012-10-02T15:47:56Z</time>
      </trkpt>
      <trkpt lat="43.40748" lon="-0.39604">
        <ele>183.75</ele>
        <time>2012-10-02T15:48:04Z</time>
      </trkpt>
      <trkpt lat="43.40754" lon="-0.39616">
        <ele>183.75</ele>
        <time>2012-10-02T15:48:12Z</time>
      </trkpt>
      <trkpt lat="43.40759" lon="-0.39626">
        <ele>183.75</ele>
        <time>2012-10-02T15:48:20Z</time>
      </trkpt>
      <trkpt lat="43.40764" lon="-0.39638">
        <ele>184.23</ele>
        <time>2012-10-02T15:48:28Z</time>
      </trkpt>
      <trkpt lat="43.4077" lon="-0.39648">
        <ele>183.75</ele>
        <time>2012-10-02T15:48:35Z</time>
      </trkpt>
      <trkpt lat="43.40775" lon="-0.39659">
        <ele>183.75</ele>
        <time>2012-10-02T15:48:43Z</time>
      </trkpt>
      <trkpt lat="43.40781" lon="-0.3967">
        <ele>183.27</ele>
        <time>2012-10-02T15:48:51Z</time>
      </trkpt>
      <trkpt lat="43.40787" lon="-0.39682">
        <ele>183.27</ele>
        <time>2012-10-02T15:48:59Z</time>
      </trkpt>
      <trkpt lat="43.40792" lon="-0.39693">
        <ele>184.23</ele>
        <time>2012-10-02T15:49:07Z</time>
      </trkpt>
      <trkpt lat="43.40798" lon="-0.39704">
        <ele>183.75</ele>
        <time>2012-10-02T15:49:15Z</time>
      </trkpt>
      <trkpt lat="43.40801" lon="-0.39716">
        <ele>183.27</ele>
        <time>2012-10-02T15:49:23Z</time>
      </trkpt>
      <trkpt lat="43.40805" lon="-0.39729">
        <ele>183.27</ele>
        <time>2012-10-02T15:49:31Z</time>
      </trkpt>
      <trkpt lat="43.40808" lon="-0.39741">
        <ele>183.75</ele>
        <time>2012-10-02T15:49:39Z</time>
      </trkpt>
      <trkpt lat="43.40811" lon="-0.39753">
        <ele>183.75</ele>
        <time>2012-10-02T15:49:47Z</time>
      </trkpt>
      <trkpt lat="43.40816" lon="-0.39766">
        <ele>184.23</ele>
        <time>2012-10-02T15:49:55Z</time>
      </trkpt>
      <trkpt lat="43.40821" lon="-0.39776">
        <ele>184.23</ele>
        <time>2012-10-02T15:50:03Z</time>
      </trkpt>
      <trkpt lat="43.40828" lon="-0.39786">
        <ele>183.75</ele>
        <time>2012-10-02T15:50:11Z</time>
      </trkpt>
      <trkpt lat="43.40835" lon="-0.39794">
        <ele>184.71</ele>
        <time>2012-10-02T15:50:19Z</time>
      </trkpt>
      <trkpt lat="43.40844" lon="-0.39802">
        <ele>184.71</ele>
        <time>2012-10-02T15:50:28Z</time>
      </trkpt>
      <trkpt lat="43.40852" lon="-0.39809">
        <ele>184.23</ele>
        <time>2012-10-02T15:50:36Z</time>
      </trkpt>
      <trkpt lat="43.4086" lon="-0.39816">
        <ele>184.23</ele>
        <time>2012-10-02T15:50:44Z</time>
      </trkpt>
      <trkpt lat="43.40867" lon="-0.39824">
        <ele>184.23</ele>
        <time>2012-10-02T15:50:52Z</time>
      </trkpt>
      <trkpt lat="43.40874" lon="-0.39832">
        <ele>184.23</ele>
        <time>2012-10-02T15:51:00Z</time>
      </trkpt>
      <trkpt lat="43.4088" lon="-0.39844">
        <ele>184.71</ele>
        <time>2012-10-02T15:51:08Z</time>
      </trkpt>
      <trkpt lat="43.40885" lon="-0.39854">
        <ele>184.23</ele>
        <time>2012-10-02T15:51:16Z</time>
      </trkpt>
      <trkpt lat="43.4089" lon="-0.39866">
        <ele>184.23</ele>
        <time>2012-10-02T15:51:24Z</time>
      </trkpt>
      <trkpt lat="43.40899" lon="-0.39875">
        <ele>183.75</ele>
        <time>2012-10-02T15:51:33Z</time>
      </trkpt>
      <trkpt lat="43.40907" lon="-0.3988">
        <ele>183.75</ele>
        <time>2012-10-02T15:51:41Z</time>
      </trkpt>
      <trkpt lat="43.40917" lon="-0.39879">
        <ele>183.75</ele>
        <time>2012-10-02T15:51:50Z</time>
      </trkpt>
      <trkpt lat="43.40926" lon="-0.39876">
        <ele>184.71</ele>
        <time>2012-10-02T15:51:58Z</time>
      </trkpt>
      <trkpt lat="43.40935" lon="-0.39871">
        <ele>185.67</ele>
        <time>2012-10-02T15:52:06Z</time>
      </trkpt>
      <trkpt lat="43.40944" lon="-0.39866">
        <ele>185.19</ele>
        <time>2012-10-02T15:52:14Z</time>
      </trkpt>
      <trkpt lat="43.40953" lon="-0.39861">
        <ele>186.15</ele>
        <time>2012-10-02T15:52:24Z</time>
      </trkpt>
      <trkpt lat="43.40962" lon="-0.39856">
        <ele>187.11</ele>
        <time>2012-10-02T15:52:35Z</time>
      </trkpt>
      <trkpt lat="43.40969" lon="-0.39854">
        <ele>187.59</ele>
        <time>2012-10-02T15:53:00Z</time>
      </trkpt>
      <trkpt lat="43.40975" lon="-0.39859">
        <ele>188.08</ele>
        <time>2012-10-02T15:54:34Z</time>
      </trkpt>
      <trkpt lat="43.40984" lon="-0.39867">
        <ele>188.08</ele>
        <time>2012-10-02T15:54:43Z</time>
      </trkpt>
      <trkpt lat="43.40992" lon="-0.39875">
        <ele>188.08</ele>
        <time>2012-10-02T15:54:52Z</time>
      </trkpt>
      <trkpt lat="43.41" lon="-0.39882">
        <ele>188.08</ele>
        <time>2012-10-02T15:55:02Z</time>
      </trkpt>
      <trkpt lat="43.41009" lon="-0.39888">
        <ele>187.59</ele>
        <time>2012-10-02T15:55:12Z</time>
      </trkpt>
      <trkpt lat="43.41019" lon="-0.39891">
        <ele>187.11</ele>
        <time>2012-10-02T15:55:21Z</time>
      </trkpt>
      <trkpt lat="43.41028" lon="-0.39893">
        <ele>186.15</ele>
        <time>2012-10-02T15:55:29Z</time>
      </trkpt>
      <trkpt lat="43.41037" lon="-0.39897">
        <ele>185.19</ele>
        <time>2012-10-02T15:55:38Z</time>
      </trkpt>
      <trkpt lat="43.41047" lon="-0.39902">
        <ele>184.71</ele>
        <time>2012-10-02T15:55:47Z</time>
      </trkpt>
      <trkpt lat="43.41056" lon="-0.39904">
        <ele>183.75</ele>
        <time>2012-10-02T15:55:55Z</time>
      </trkpt>
      <trkpt lat="43.41067" lon="-0.39909">
        <ele>182.79</ele>
        <time>2012-10-02T15:56:05Z</time>
      </trkpt>
      <trkpt lat="43.41077" lon="-0.39911">
        <ele>181.83</ele>
        <time>2012-10-02T15:56:13Z</time>
      </trkpt>
      <trkpt lat="43.41086" lon="-0.39919">
        <ele>181.35</ele>
        <time>2012-10-02T15:56:22Z</time>
      </trkpt>
      <trkpt lat="43.41094" lon="-0.39928">
        <ele>180.87</ele>
        <time>2012-10-02T15:56:30Z</time>
      </trkpt>
      <trkpt lat="43.41102" lon="-0.39936">
        <ele>180.87</ele>
        <time>2012-10-02T15:56:38Z</time>
      </trkpt>
      <trkpt lat="43.41108" lon="-0.39946">
        <ele>181.35</ele>
        <time>2012-10-02T15:56:46Z</time>
      </trkpt>
      <trkpt lat="43.41115" lon="-0.39957">
        <ele>180.87</ele>
        <time>2012-10-02T15:56:54Z</time>
      </trkpt>
      <trkpt lat="43.4112" lon="-0.39967">
        <ele>180.87</ele>
        <time>2012-10-02T15:57:02Z</time>
      </trkpt>
      <trkpt lat="43.41126" lon="-0.39978">
        <ele>180.87</ele>
        <time>2012-10-02T15:57:10Z</time>
      </trkpt>
      <trkpt lat="43.41133" lon="-0.39988">
        <ele>181.35</ele>
        <time>2012-10-02T15:57:18Z</time>
      </trkpt>
      <trkpt lat="43.4114" lon="-0.39996">
        <ele>181.35</ele>
        <time>2012-10-02T15:57:26Z</time>
      </trkpt>
      <trkpt lat="43.41148" lon="-0.40003">
        <ele>180.87</ele>
        <time>2012-10-02T15:57:34Z</time>
      </trkpt>
      <trkpt lat="43.41156" lon="-0.40011">
        <ele>181.35</ele>
        <time>2012-10-02T15:57:42Z</time>
      </trkpt>
      <trkpt lat="43.41163" lon="-0.4002">
        <ele>181.35</ele>
        <time>2012-10-02T15:57:52Z</time>
      </trkpt>
      <trkpt lat="43.41171" lon="-0.40029">
        <ele>181.83</ele>
        <time>2012-10-02T15:58:01Z</time>
      </trkpt>
      <trkpt lat="43.41177" lon="-0.40039">
        <ele>181.83</ele>
        <time>2012-10-02T15:58:09Z</time>
      </trkpt>
      <trkpt lat="43.41183" lon="-0.40051">
        <ele>181.35</ele>
        <time>2012-10-02T15:58:18Z</time>
      </trkpt>
      <trkpt lat="43.41188" lon="-0.40061">
        <ele>181.83</ele>
        <time>2012-10-02T15:58:26Z</time>
      </trkpt>
      <trkpt lat="43.41194" lon="-0.40072">
        <ele>181.83</ele>
        <time>2012-10-02T15:58:34Z</time>
      </trkpt>
      <trkpt lat="43.412" lon="-0.40083">
        <ele>181.83</ele>
        <time>2012-10-02T15:58:42Z</time>
      </trkpt>
      <trkpt lat="43.41205" lon="-0.40096">
        <ele>181.35</ele>
        <time>2012-10-02T15:58:50Z</time>
      </trkpt>
      <trkpt lat="43.4121" lon="-0.40107">
        <ele>181.35</ele>
        <time>2012-10-02T15:58:58Z</time>
      </trkpt>
      <trkpt lat="43.41217" lon="-0.40115">
        <ele>180.87</ele>
        <time>2012-10-02T15:59:05Z</time>
      </trkpt>
      <trkpt lat="43.41224" lon="-0.40124">
        <ele>180.87</ele>
        <time>2012-10-02T15:59:13Z</time>
      </trkpt>
      <trkpt lat="43.41232" lon="-0.40133">
        <ele>181.35</ele>
        <time>2012-10-02T15:59:21Z</time>
      </trkpt>
      <trkpt lat="43.41239" lon="-0.40141">
        <ele>181.35</ele>
        <time>2012-10-02T15:59:29Z</time>
      </trkpt>
      <trkpt lat="43.41246" lon="-0.40152">
        <ele>181.35</ele>
        <time>2012-10-02T15:59:37Z</time>
      </trkpt>
      <trkpt lat="43.41251" lon="-0.40163">
        <ele>181.83</ele>
        <time>2012-10-02T15:59:45Z</time>
      </trkpt>
      <trkpt lat="43.41256" lon="-0.40174">
        <ele>181.83</ele>
        <time>2012-10-02T15:59:53Z</time>
      </trkpt>
      <trkpt lat="43.41259" lon="-0.40187">
        <ele>181.35</ele>
        <time>2012-10-02T16:00:01Z</time>
      </trkpt>
      <trkpt lat="43.41262" lon="-0.40201">
        <ele>181.83</ele>
        <time>2012-10-02T16:00:09Z</time>
      </trkpt>
      <trkpt lat="43.41265" lon="-0.40215">
        <ele>181.35</ele>
        <time>2012-10-02T16:00:17Z</time>
      </trkpt>
      <trkpt lat="43.41268" lon="-0.40227">
        <ele>180.87</ele>
        <time>2012-10-02T16:00:25Z</time>
      </trkpt>
      <trkpt lat="43.41271" lon="-0.40241">
        <ele>180.87</ele>
        <time>2012-10-02T16:00:33Z</time>
      </trkpt>
      <trkpt lat="43.41274" lon="-0.40254">
        <ele>180.87</ele>
        <time>2012-10-02T16:00:41Z</time>
      </trkpt>
      <trkpt lat="43.41277" lon="-0.40267">
        <ele>180.38</ele>
        <time>2012-10-02T16:00:49Z</time>
      </trkpt>
      <trkpt lat="43.4128" lon="-0.4028">
        <ele>180.38</ele>
        <time>2012-10-02T16:00:57Z</time>
      </trkpt>
      <trkpt lat="43.41283" lon="-0.40292">
        <ele>179.9</ele>
        <time>2012-10-02T16:01:04Z</time>
      </trkpt>
      <trkpt lat="43.41284" lon="-0.40305">
        <ele>179.9</ele>
        <time>2012-10-02T16:01:12Z</time>
      </trkpt>
      <trkpt lat="43.41286" lon="-0.40319">
        <ele>179.9</ele>
        <time>2012-10-02T16:01:21Z</time>
      </trkpt>
      <trkpt lat="43.41288" lon="-0.40332">
        <ele>179.42</ele>
        <time>2012-10-02T16:01:29Z</time>
      </trkpt>
      <trkpt lat="43.41289" lon="-0.40347">
        <ele>179.9</ele>
        <time>2012-10-02T16:01:37Z</time>
      </trkpt>
      <trkpt lat="43.4129" lon="-0.40361">
        <ele>178.94</ele>
        <time>2012-10-02T16:01:45Z</time>
      </trkpt>
      <trkpt lat="43.4129" lon="-0.40374">
        <ele>179.42</ele>
        <time>2012-10-02T16:01:53Z</time>
      </trkpt>
      <trkpt lat="43.4129" lon="-0.40389">
        <ele>178.94</ele>
        <time>2012-10-02T16:02:02Z</time>
      </trkpt>
      <trkpt lat="43.41289" lon="-0.40402">
        <ele>178.94</ele>
        <time>2012-10-02T16:02:10Z</time>
      </trkpt>
      <trkpt lat="43.41287" lon="-0.40416">
        <ele>179.42</ele>
        <time>2012-10-02T16:02:18Z</time>
      </trkpt>
      <trkpt lat="43.41283" lon="-0.40428">
        <ele>178.94</ele>
        <time>2012-10-02T16:02:27Z</time>
      </trkpt>
      <trkpt lat="43.41276" lon="-0.40439">
        <ele>178.94</ele>
        <time>2012-10-02T16:02:35Z</time>
      </trkpt>
      <trkpt lat="43.41271" lon="-0.40452">
        <ele>178.94</ele>
        <time>2012-10-02T16:02:43Z</time>
      </trkpt>
      <trkpt lat="43.41267" lon="-0.40464">
        <ele>178.94</ele>
        <time>2012-10-02T16:02:50Z</time>
      </trkpt>
      <trkpt lat="43.41264" lon="-0.40476">
        <ele>178.94</ele>
        <time>2012-10-02T16:02:58Z</time>
      </trkpt>
      <trkpt lat="43.41259" lon="-0.40489">
        <ele>178.94</ele>
        <time>2012-10-02T16:03:06Z</time>
      </trkpt>
      <trkpt lat="43.41256" lon="-0.405">
        <ele>178.94</ele>
        <time>2012-10-02T16:03:14Z</time>
      </trkpt>
      <trkpt lat="43.41252" lon="-0.40513">
        <ele>178.94</ele>
        <time>2012-10-02T16:03:22Z</time>
      </trkpt>
      <trkpt lat="43.41249" lon="-0.40527">
        <ele>178.94</ele>
        <time>2012-10-02T16:03:31Z</time>
      </trkpt>
      <trkpt lat="43.41246" lon="-0.4054">
        <ele>178.94</ele>
        <time>2012-10-02T16:03:39Z</time>
      </trkpt>
      <trkpt lat="43.41245" lon="-0.40553">
        <ele>178.94</ele>
        <time>2012-10-02T16:03:47Z</time>
      </trkpt>
      <trkpt lat="43.41241" lon="-0.40565">
        <ele>178.94</ele>
        <time>2012-10-02T16:03:56Z</time>
      </trkpt>
      <trkpt lat="43.41233" lon="-0.40575">
        <ele>180.87</ele>
        <time>2012-10-02T16:04:05Z</time>
      </trkpt>
      <trkpt lat="43.41225" lon="-0.40584">
        <ele>179.42</ele>
        <time>2012-10-02T16:04:14Z</time>
      </trkpt>
      <trkpt lat="43.41217" lon="-0.40591">
        <ele>178.94</ele>
        <time>2012-10-02T16:04:22Z</time>
      </trkpt>
      <trkpt lat="43.41209" lon="-0.40598">
        <ele>178.94</ele>
        <time>2012-10-02T16:04:31Z</time>
      </trkpt>
      <trkpt lat="43.41209" lon="-0.40598">
        <ele>179.42</ele>
        <time>2012-10-02T16:05:34Z</time>
      </trkpt>
      <trkpt lat="43.41217" lon="-0.40596">
        <ele>178.94</ele>
        <time>2012-10-02T16:05:55Z</time>
      </trkpt>
      <trkpt lat="43.41206" lon="-0.40599">
        <ele>179.42</ele>
        <time>2012-10-02T16:07:07Z</time>
      </trkpt>
    </trkseg>
  </trk>
</gpx>